<?xml version="1.0" encoding="UTF-8" standalone="no" ?>
<gpx xmlns="http://www.topografix.com/GPX/1/1" xmlns:xsi="http://www.w3.org/2001/XMLSchema-instance" xsi:schemaLocation="http://www.topografix.com/GPX/1/1 http://www.topografix.com/GPX/1/1/gpx.xsd" version="1.1" creator="VisuGPX - https://www.visugpx.com">
  <metadata>
    <name>Cyclo - Tour des lacs.</name>
    <desc><![CDATA[Très jolie le tour des lacs, des paysages vraiment superbes.]]></desc>
  </metadata>
  <trk>
    <name><![CDATA[01-JUIN-19 16:16:11]]></name>
    <trkseg>
      <trkpt lat="46.77137" lon="6.27562">
        <ele>804.28</ele>
        <time>2019-06-01T11:51:03Z</time>
      </trkpt>
      <trkpt lat="46.77137" lon="6.2756">
        <ele>804.28</ele>
        <time>2019-06-01T11:51:04Z</time>
      </trkpt>
      <trkpt lat="46.77139" lon="6.27564">
        <ele>804.76</ele>
        <time>2019-06-01T11:51:16Z</time>
      </trkpt>
      <trkpt lat="46.7715" lon="6.27579">
        <ele>804.76</ele>
        <time>2019-06-01T11:51:24Z</time>
      </trkpt>
      <trkpt lat="46.77157" lon="6.27646">
        <ele>805.72</ele>
        <time>2019-06-01T11:51:38Z</time>
      </trkpt>
      <trkpt lat="46.77162" lon="6.27724">
        <ele>807.16</ele>
        <time>2019-06-01T11:51:53Z</time>
      </trkpt>
      <trkpt lat="46.77148" lon="6.27786">
        <ele>806.68</ele>
        <time>2019-06-01T11:52:05Z</time>
      </trkpt>
      <trkpt lat="46.77147" lon="6.27792">
        <ele>806.68</ele>
        <time>2019-06-01T11:52:06Z</time>
      </trkpt>
      <trkpt lat="46.77142" lon="6.27817">
        <ele>806.68</ele>
        <time>2019-06-01T11:52:10Z</time>
      </trkpt>
      <trkpt lat="46.77122" lon="6.27882">
        <ele>807.16</ele>
        <time>2019-06-01T11:52:20Z</time>
      </trkpt>
      <trkpt lat="46.77097" lon="6.27923">
        <ele>807.64</ele>
        <time>2019-06-01T11:52:28Z</time>
      </trkpt>
      <trkpt lat="46.77078" lon="6.27933">
        <ele>808.61</ele>
        <time>2019-06-01T11:52:33Z</time>
      </trkpt>
      <trkpt lat="46.77021" lon="6.27906">
        <ele>810.05</ele>
        <time>2019-06-01T11:52:46Z</time>
      </trkpt>
      <trkpt lat="46.76998" lon="6.27877">
        <ele>811.01</ele>
        <time>2019-06-01T11:52:53Z</time>
      </trkpt>
      <trkpt lat="46.76979" lon="6.27838">
        <ele>811.97</ele>
        <time>2019-06-01T11:53:01Z</time>
      </trkpt>
      <trkpt lat="46.76929" lon="6.27764">
        <ele>814.37</ele>
        <time>2019-06-01T11:53:19Z</time>
      </trkpt>
      <trkpt lat="46.76879" lon="6.27715">
        <ele>816.3</ele>
        <time>2019-06-01T11:53:35Z</time>
      </trkpt>
      <trkpt lat="46.76852" lon="6.27694">
        <ele>817.74</ele>
        <time>2019-06-01T11:53:43Z</time>
      </trkpt>
      <trkpt lat="46.76791" lon="6.27651">
        <ele>819.66</ele>
        <time>2019-06-01T11:54:00Z</time>
      </trkpt>
      <trkpt lat="46.76736" lon="6.27612">
        <ele>821.1</ele>
        <time>2019-06-01T11:54:17Z</time>
      </trkpt>
      <trkpt lat="46.76684" lon="6.27576">
        <ele>822.55</ele>
        <time>2019-06-01T11:54:33Z</time>
      </trkpt>
      <trkpt lat="46.76651" lon="6.27549">
        <ele>823.51</ele>
        <time>2019-06-01T11:54:44Z</time>
      </trkpt>
      <trkpt lat="46.76603" lon="6.27498">
        <ele>824.95</ele>
        <time>2019-06-01T11:54:59Z</time>
      </trkpt>
      <trkpt lat="46.76568" lon="6.27435">
        <ele>826.39</ele>
        <time>2019-06-01T11:55:13Z</time>
      </trkpt>
      <trkpt lat="46.76564" lon="6.27439">
        <ele>826.87</ele>
        <time>2019-06-01T11:55:17Z</time>
      </trkpt>
      <trkpt lat="46.76573" lon="6.2746">
        <ele>826.87</ele>
        <time>2019-06-01T11:55:22Z</time>
      </trkpt>
      <trkpt lat="46.76578" lon="6.27456">
        <ele>826.39</ele>
        <time>2019-06-01T11:55:27Z</time>
      </trkpt>
      <trkpt lat="46.76577" lon="6.27455">
        <ele>826.87</ele>
        <time>2019-06-01T11:55:40Z</time>
      </trkpt>
      <trkpt lat="46.76578" lon="6.27454">
        <ele>827.83</ele>
        <time>2019-06-01T11:56:06Z</time>
      </trkpt>
      <trkpt lat="46.76578" lon="6.27454">
        <ele>827.83</ele>
        <time>2019-06-01T11:56:12Z</time>
      </trkpt>
      <trkpt lat="46.76575" lon="6.2745">
        <ele>827.83</ele>
        <time>2019-06-01T11:56:15Z</time>
      </trkpt>
      <trkpt lat="46.7657" lon="6.27439">
        <ele>828.31</ele>
        <time>2019-06-01T11:56:18Z</time>
      </trkpt>
      <trkpt lat="46.76544" lon="6.27353">
        <ele>829.76</ele>
        <time>2019-06-01T11:56:30Z</time>
      </trkpt>
      <trkpt lat="46.76537" lon="6.27246">
        <ele>832.64</ele>
        <time>2019-06-01T11:56:41Z</time>
      </trkpt>
      <trkpt lat="46.76521" lon="6.27079">
        <ele>836</ele>
        <time>2019-06-01T11:56:57Z</time>
      </trkpt>
      <trkpt lat="46.7647" lon="6.26965">
        <ele>835.52</ele>
        <time>2019-06-01T11:57:09Z</time>
      </trkpt>
      <trkpt lat="46.76371" lon="6.26848">
        <ele>832.64</ele>
        <time>2019-06-01T11:57:24Z</time>
      </trkpt>
      <trkpt lat="46.76303" lon="6.26771">
        <ele>832.64</ele>
        <time>2019-06-01T11:57:34Z</time>
      </trkpt>
      <trkpt lat="46.76201" lon="6.26708">
        <ele>833.6</ele>
        <time>2019-06-01T11:57:48Z</time>
      </trkpt>
      <trkpt lat="46.76148" lon="6.26676">
        <ele>833.6</ele>
        <time>2019-06-01T11:57:56Z</time>
      </trkpt>
      <trkpt lat="46.76056" lon="6.26591">
        <ele>833.12</ele>
        <time>2019-06-01T11:58:12Z</time>
      </trkpt>
      <trkpt lat="46.75973" lon="6.26496">
        <ele>831.68</ele>
        <time>2019-06-01T11:58:29Z</time>
      </trkpt>
      <trkpt lat="46.75869" lon="6.26368">
        <ele>829.27</ele>
        <time>2019-06-01T11:58:46Z</time>
      </trkpt>
      <trkpt lat="46.75817" lon="6.26272">
        <ele>829.76</ele>
        <time>2019-06-01T11:58:57Z</time>
      </trkpt>
      <trkpt lat="46.75773" lon="6.26167">
        <ele>833.12</ele>
        <time>2019-06-01T11:59:10Z</time>
      </trkpt>
      <trkpt lat="46.75753" lon="6.26109">
        <ele>834.56</ele>
        <time>2019-06-01T11:59:18Z</time>
      </trkpt>
      <trkpt lat="46.75735" lon="6.26017">
        <ele>836.96</ele>
        <time>2019-06-01T11:59:30Z</time>
      </trkpt>
      <trkpt lat="46.75731" lon="6.25995">
        <ele>837.93</ele>
        <time>2019-06-01T11:59:33Z</time>
      </trkpt>
      <trkpt lat="46.75718" lon="6.25943">
        <ele>839.37</ele>
        <time>2019-06-01T11:59:40Z</time>
      </trkpt>
      <trkpt lat="46.75706" lon="6.2591">
        <ele>840.81</ele>
        <time>2019-06-01T11:59:45Z</time>
      </trkpt>
      <trkpt lat="46.75668" lon="6.25812">
        <ele>843.69</ele>
        <time>2019-06-01T12:00:00Z</time>
      </trkpt>
      <trkpt lat="46.75653" lon="6.25775">
        <ele>844.66</ele>
        <time>2019-06-01T12:00:06Z</time>
      </trkpt>
      <trkpt lat="46.75638" lon="6.25722">
        <ele>846.1</ele>
        <time>2019-06-01T12:00:19Z</time>
      </trkpt>
      <trkpt lat="46.75631" lon="6.25725">
        <ele>846.58</ele>
        <time>2019-06-01T12:00:25Z</time>
      </trkpt>
      <trkpt lat="46.7563" lon="6.25733">
        <ele>846.58</ele>
        <time>2019-06-01T12:00:28Z</time>
      </trkpt>
      <trkpt lat="46.75637" lon="6.25758">
        <ele>845.62</ele>
        <time>2019-06-01T12:00:34Z</time>
      </trkpt>
      <trkpt lat="46.7564" lon="6.25769">
        <ele>845.14</ele>
        <time>2019-06-01T12:00:43Z</time>
      </trkpt>
      <trkpt lat="46.75638" lon="6.25739">
        <ele>846.58</ele>
        <time>2019-06-01T12:00:51Z</time>
      </trkpt>
      <trkpt lat="46.75639" lon="6.25718">
        <ele>847.06</ele>
        <time>2019-06-01T12:00:55Z</time>
      </trkpt>
      <trkpt lat="46.75654" lon="6.25692">
        <ele>846.58</ele>
        <time>2019-06-01T12:01:01Z</time>
      </trkpt>
      <trkpt lat="46.7566" lon="6.25682">
        <ele>846.1</ele>
        <time>2019-06-01T12:01:03Z</time>
      </trkpt>
      <trkpt lat="46.75706" lon="6.25599">
        <ele>844.18</ele>
        <time>2019-06-01T12:01:16Z</time>
      </trkpt>
      <trkpt lat="46.75714" lon="6.25583">
        <ele>844.18</ele>
        <time>2019-06-01T12:01:18Z</time>
      </trkpt>
      <trkpt lat="46.75739" lon="6.25535">
        <ele>843.21</ele>
        <time>2019-06-01T12:01:24Z</time>
      </trkpt>
      <trkpt lat="46.7576" lon="6.25477">
        <ele>841.29</ele>
        <time>2019-06-01T12:01:31Z</time>
      </trkpt>
      <trkpt lat="46.75781" lon="6.25343">
        <ele>839.85</ele>
        <time>2019-06-01T12:01:44Z</time>
      </trkpt>
      <trkpt lat="46.75784" lon="6.25297">
        <ele>838.41</ele>
        <time>2019-06-01T12:01:48Z</time>
      </trkpt>
      <trkpt lat="46.75814" lon="6.25228">
        <ele>836.48</ele>
        <time>2019-06-01T12:01:55Z</time>
      </trkpt>
      <trkpt lat="46.75828" lon="6.25216">
        <ele>836.48</ele>
        <time>2019-06-01T12:01:57Z</time>
      </trkpt>
      <trkpt lat="46.75849" lon="6.2517">
        <ele>835.52</ele>
        <time>2019-06-01T12:02:02Z</time>
      </trkpt>
      <trkpt lat="46.75857" lon="6.24992">
        <ele>832.64</ele>
        <time>2019-06-01T12:02:17Z</time>
      </trkpt>
      <trkpt lat="46.75849" lon="6.24851">
        <ele>830.24</ele>
        <time>2019-06-01T12:02:29Z</time>
      </trkpt>
      <trkpt lat="46.75842" lon="6.24781">
        <ele>828.79</ele>
        <time>2019-06-01T12:02:35Z</time>
      </trkpt>
      <trkpt lat="46.75864" lon="6.24722">
        <ele>828.79</ele>
        <time>2019-06-01T12:02:41Z</time>
      </trkpt>
      <trkpt lat="46.75929" lon="6.2467">
        <ele>829.27</ele>
        <time>2019-06-01T12:02:52Z</time>
      </trkpt>
      <trkpt lat="46.75969" lon="6.24637">
        <ele>829.27</ele>
        <time>2019-06-01T12:03:06Z</time>
      </trkpt>
      <trkpt lat="46.76003" lon="6.24613">
        <ele>830.24</ele>
        <time>2019-06-01T12:03:17Z</time>
      </trkpt>
      <trkpt lat="46.76048" lon="6.24577">
        <ele>829.76</ele>
        <time>2019-06-01T12:03:28Z</time>
      </trkpt>
      <trkpt lat="46.76123" lon="6.24521">
        <ele>830.72</ele>
        <time>2019-06-01T12:03:44Z</time>
      </trkpt>
      <trkpt lat="46.76158" lon="6.24509">
        <ele>831.68</ele>
        <time>2019-06-01T12:03:52Z</time>
      </trkpt>
      <trkpt lat="46.76175" lon="6.24513">
        <ele>832.16</ele>
        <time>2019-06-01T12:03:56Z</time>
      </trkpt>
      <trkpt lat="46.76216" lon="6.24522">
        <ele>833.12</ele>
        <time>2019-06-01T12:04:09Z</time>
      </trkpt>
      <trkpt lat="46.76258" lon="6.24545">
        <ele>834.56</ele>
        <time>2019-06-01T12:04:22Z</time>
      </trkpt>
      <trkpt lat="46.76298" lon="6.24592">
        <ele>836.48</ele>
        <time>2019-06-01T12:04:37Z</time>
      </trkpt>
      <trkpt lat="46.76315" lon="6.24624">
        <ele>837.45</ele>
        <time>2019-06-01T12:04:44Z</time>
      </trkpt>
      <trkpt lat="46.76327" lon="6.24656">
        <ele>837.93</ele>
        <time>2019-06-01T12:04:50Z</time>
      </trkpt>
      <trkpt lat="46.76346" lon="6.24716">
        <ele>839.85</ele>
        <time>2019-06-01T12:05:03Z</time>
      </trkpt>
      <trkpt lat="46.76363" lon="6.24764">
        <ele>840.81</ele>
        <time>2019-06-01T12:05:15Z</time>
      </trkpt>
      <trkpt lat="46.76383" lon="6.24783">
        <ele>841.77</ele>
        <time>2019-06-01T12:05:23Z</time>
      </trkpt>
      <trkpt lat="46.76381" lon="6.24777">
        <ele>841.77</ele>
        <time>2019-06-01T12:05:28Z</time>
      </trkpt>
      <trkpt lat="46.76377" lon="6.24773">
        <ele>841.77</ele>
        <time>2019-06-01T12:05:30Z</time>
      </trkpt>
      <trkpt lat="46.76378" lon="6.2478">
        <ele>841.77</ele>
        <time>2019-06-01T12:05:35Z</time>
      </trkpt>
      <trkpt lat="46.76416" lon="6.24796">
        <ele>843.69</ele>
        <time>2019-06-01T12:05:46Z</time>
      </trkpt>
      <trkpt lat="46.76462" lon="6.24816">
        <ele>845.14</ele>
        <time>2019-06-01T12:05:59Z</time>
      </trkpt>
      <trkpt lat="46.76522" lon="6.24839">
        <ele>846.1</ele>
        <time>2019-06-01T12:06:13Z</time>
      </trkpt>
      <trkpt lat="46.76539" lon="6.24837">
        <ele>847.06</ele>
        <time>2019-06-01T12:06:17Z</time>
      </trkpt>
      <trkpt lat="46.76549" lon="6.24832">
        <ele>848.02</ele>
        <time>2019-06-01T12:06:20Z</time>
      </trkpt>
      <trkpt lat="46.76574" lon="6.24812">
        <ele>850.9</ele>
        <time>2019-06-01T12:06:28Z</time>
      </trkpt>
      <trkpt lat="46.76615" lon="6.24791">
        <ele>853.31</ele>
        <time>2019-06-01T12:06:38Z</time>
      </trkpt>
      <trkpt lat="46.76624" lon="6.24786">
        <ele>853.79</ele>
        <time>2019-06-01T12:06:40Z</time>
      </trkpt>
      <trkpt lat="46.76639" lon="6.24773">
        <ele>854.75</ele>
        <time>2019-06-01T12:06:44Z</time>
      </trkpt>
      <trkpt lat="46.76649" lon="6.24761">
        <ele>855.23</ele>
        <time>2019-06-01T12:06:47Z</time>
      </trkpt>
      <trkpt lat="46.7669" lon="6.2471">
        <ele>859.08</ele>
        <time>2019-06-01T12:06:59Z</time>
      </trkpt>
      <trkpt lat="46.76696" lon="6.247">
        <ele>859.56</ele>
        <time>2019-06-01T12:07:01Z</time>
      </trkpt>
      <trkpt lat="46.76715" lon="6.24668">
        <ele>861.96</ele>
        <time>2019-06-01T12:07:08Z</time>
      </trkpt>
      <trkpt lat="46.76722" lon="6.24645">
        <ele>862.92</ele>
        <time>2019-06-01T12:07:12Z</time>
      </trkpt>
      <trkpt lat="46.76741" lon="6.2458">
        <ele>865.8</ele>
        <time>2019-06-01T12:07:23Z</time>
      </trkpt>
      <trkpt lat="46.76748" lon="6.2455">
        <ele>867.25</ele>
        <time>2019-06-01T12:07:28Z</time>
      </trkpt>
      <trkpt lat="46.76749" lon="6.24531">
        <ele>868.21</ele>
        <time>2019-06-01T12:07:31Z</time>
      </trkpt>
      <trkpt lat="46.76749" lon="6.24518">
        <ele>868.69</ele>
        <time>2019-06-01T12:07:33Z</time>
      </trkpt>
      <trkpt lat="46.76748" lon="6.24499">
        <ele>869.65</ele>
        <time>2019-06-01T12:07:36Z</time>
      </trkpt>
      <trkpt lat="46.76742" lon="6.24471">
        <ele>871.09</ele>
        <time>2019-06-01T12:07:41Z</time>
      </trkpt>
      <trkpt lat="46.76742" lon="6.24467">
        <ele>871.57</ele>
        <time>2019-06-01T12:07:42Z</time>
      </trkpt>
      <trkpt lat="46.76746" lon="6.24448">
        <ele>872.05</ele>
        <time>2019-06-01T12:07:50Z</time>
      </trkpt>
      <trkpt lat="46.76744" lon="6.24437">
        <ele>872.53</ele>
        <time>2019-06-01T12:07:53Z</time>
      </trkpt>
      <trkpt lat="46.76743" lon="6.24416">
        <ele>873.01</ele>
        <time>2019-06-01T12:07:59Z</time>
      </trkpt>
      <trkpt lat="46.76741" lon="6.2442">
        <ele>873.5</ele>
        <time>2019-06-01T12:08:06Z</time>
      </trkpt>
      <trkpt lat="46.76742" lon="6.24442">
        <ele>873.01</ele>
        <time>2019-06-01T12:08:12Z</time>
      </trkpt>
      <trkpt lat="46.76756" lon="6.24508">
        <ele>872.53</ele>
        <time>2019-06-01T12:08:26Z</time>
      </trkpt>
      <trkpt lat="46.76764" lon="6.24551">
        <ele>873.01</ele>
        <time>2019-06-01T12:08:39Z</time>
      </trkpt>
      <trkpt lat="46.76768" lon="6.24553">
        <ele>873.01</ele>
        <time>2019-06-01T12:08:41Z</time>
      </trkpt>
      <trkpt lat="46.76764" lon="6.24537">
        <ele>873.01</ele>
        <time>2019-06-01T12:08:45Z</time>
      </trkpt>
      <trkpt lat="46.76749" lon="6.24458">
        <ele>873.01</ele>
        <time>2019-06-01T12:08:59Z</time>
      </trkpt>
      <trkpt lat="46.76746" lon="6.24465">
        <ele>873.01</ele>
        <time>2019-06-01T12:09:03Z</time>
      </trkpt>
      <trkpt lat="46.7675" lon="6.24477">
        <ele>873.01</ele>
        <time>2019-06-01T12:09:05Z</time>
      </trkpt>
      <trkpt lat="46.76766" lon="6.24576">
        <ele>873.98</ele>
        <time>2019-06-01T12:09:21Z</time>
      </trkpt>
      <trkpt lat="46.76765" lon="6.24587">
        <ele>874.46</ele>
        <time>2019-06-01T12:09:23Z</time>
      </trkpt>
      <trkpt lat="46.7675" lon="6.2464">
        <ele>875.9</ele>
        <time>2019-06-01T12:09:34Z</time>
      </trkpt>
      <trkpt lat="46.76747" lon="6.24649">
        <ele>876.38</ele>
        <time>2019-06-01T12:09:36Z</time>
      </trkpt>
      <trkpt lat="46.76742" lon="6.24672">
        <ele>876.38</ele>
        <time>2019-06-01T12:09:40Z</time>
      </trkpt>
      <trkpt lat="46.76745" lon="6.2473">
        <ele>875.42</ele>
        <time>2019-06-01T12:09:53Z</time>
      </trkpt>
      <trkpt lat="46.76766" lon="6.24793">
        <ele>875.42</ele>
        <time>2019-06-01T12:10:05Z</time>
      </trkpt>
      <trkpt lat="46.7677" lon="6.24805">
        <ele>875.42</ele>
        <time>2019-06-01T12:10:07Z</time>
      </trkpt>
      <trkpt lat="46.76815" lon="6.24922">
        <ele>873.01</ele>
        <time>2019-06-01T12:10:24Z</time>
      </trkpt>
      <trkpt lat="46.76806" lon="6.24999">
        <ele>871.09</ele>
        <time>2019-06-01T12:10:32Z</time>
      </trkpt>
      <trkpt lat="46.76782" lon="6.25074">
        <ele>869.17</ele>
        <time>2019-06-01T12:10:40Z</time>
      </trkpt>
      <trkpt lat="46.7679" lon="6.25196">
        <ele>866.29</ele>
        <time>2019-06-01T12:10:53Z</time>
      </trkpt>
      <trkpt lat="46.7679" lon="6.25204">
        <ele>865.8</ele>
        <time>2019-06-01T12:10:54Z</time>
      </trkpt>
      <trkpt lat="46.76796" lon="6.2526">
        <ele>863.88</ele>
        <time>2019-06-01T12:11:06Z</time>
      </trkpt>
      <trkpt lat="46.76797" lon="6.25264">
        <ele>863.88</ele>
        <time>2019-06-01T12:11:17Z</time>
      </trkpt>
      <trkpt lat="46.76797" lon="6.25264">
        <ele>863.88</ele>
        <time>2019-06-01T12:11:30Z</time>
      </trkpt>
      <trkpt lat="46.76799" lon="6.25269">
        <ele>864.36</ele>
        <time>2019-06-01T12:11:33Z</time>
      </trkpt>
      <trkpt lat="46.76822" lon="6.25314">
        <ele>863.4</ele>
        <time>2019-06-01T12:11:44Z</time>
      </trkpt>
      <trkpt lat="46.76834" lon="6.25332">
        <ele>862.44</ele>
        <time>2019-06-01T12:11:48Z</time>
      </trkpt>
      <trkpt lat="46.76886" lon="6.2542">
        <ele>859.56</ele>
        <time>2019-06-01T12:12:01Z</time>
      </trkpt>
      <trkpt lat="46.76932" lon="6.25506">
        <ele>856.67</ele>
        <time>2019-06-01T12:12:11Z</time>
      </trkpt>
      <trkpt lat="46.76979" lon="6.25592">
        <ele>854.27</ele>
        <time>2019-06-01T12:12:21Z</time>
      </trkpt>
      <trkpt lat="46.76995" lon="6.25613">
        <ele>853.31</ele>
        <time>2019-06-01T12:12:29Z</time>
      </trkpt>
      <trkpt lat="46.76995" lon="6.25613">
        <ele>853.79</ele>
        <time>2019-06-01T12:13:01Z</time>
      </trkpt>
      <trkpt lat="46.76995" lon="6.25614">
        <ele>853.79</ele>
        <time>2019-06-01T12:13:22Z</time>
      </trkpt>
      <trkpt lat="46.76999" lon="6.25615">
        <ele>854.27</ele>
        <time>2019-06-01T12:13:25Z</time>
      </trkpt>
      <trkpt lat="46.77035" lon="6.2564">
        <ele>853.79</ele>
        <time>2019-06-01T12:13:36Z</time>
      </trkpt>
      <trkpt lat="46.77066" lon="6.25653">
        <ele>853.31</ele>
        <time>2019-06-01T12:13:42Z</time>
      </trkpt>
      <trkpt lat="46.77095" lon="6.25657">
        <ele>852.35</ele>
        <time>2019-06-01T12:13:47Z</time>
      </trkpt>
      <trkpt lat="46.77143" lon="6.2563">
        <ele>851.38</ele>
        <time>2019-06-01T12:13:54Z</time>
      </trkpt>
      <trkpt lat="46.77201" lon="6.25628">
        <ele>849.46</ele>
        <time>2019-06-01T12:14:01Z</time>
      </trkpt>
      <trkpt lat="46.7722" lon="6.25655">
        <ele>848.5</ele>
        <time>2019-06-01T12:14:04Z</time>
      </trkpt>
      <trkpt lat="46.77253" lon="6.25715">
        <ele>846.58</ele>
        <time>2019-06-01T12:14:10Z</time>
      </trkpt>
      <trkpt lat="46.77345" lon="6.25805">
        <ele>844.18</ele>
        <time>2019-06-01T12:14:23Z</time>
      </trkpt>
      <trkpt lat="46.77429" lon="6.25902">
        <ele>843.21</ele>
        <time>2019-06-01T12:14:34Z</time>
      </trkpt>
      <trkpt lat="46.7748" lon="6.25959">
        <ele>843.69</ele>
        <time>2019-06-01T12:14:40Z</time>
      </trkpt>
      <trkpt lat="46.77575" lon="6.26049">
        <ele>843.69</ele>
        <time>2019-06-01T12:14:51Z</time>
      </trkpt>
      <trkpt lat="46.77675" lon="6.26139">
        <ele>843.21</ele>
        <time>2019-06-01T12:15:05Z</time>
      </trkpt>
      <trkpt lat="46.7773" lon="6.26234">
        <ele>843.69</ele>
        <time>2019-06-01T12:15:16Z</time>
      </trkpt>
      <trkpt lat="46.77802" lon="6.26381">
        <ele>842.25</ele>
        <time>2019-06-01T12:15:33Z</time>
      </trkpt>
      <trkpt lat="46.77855" lon="6.26459">
        <ele>841.77</ele>
        <time>2019-06-01T12:15:45Z</time>
      </trkpt>
      <trkpt lat="46.77858" lon="6.26457">
        <ele>841.77</ele>
        <time>2019-06-01T12:15:47Z</time>
      </trkpt>
      <trkpt lat="46.77848" lon="6.26442">
        <ele>842.25</ele>
        <time>2019-06-01T12:15:53Z</time>
      </trkpt>
      <trkpt lat="46.77845" lon="6.26447">
        <ele>841.77</ele>
        <time>2019-06-01T12:16:00Z</time>
      </trkpt>
      <trkpt lat="46.77845" lon="6.26447">
        <ele>842.25</ele>
        <time>2019-06-01T12:16:29Z</time>
      </trkpt>
      <trkpt lat="46.77845" lon="6.26448">
        <ele>842.73</ele>
        <time>2019-06-01T12:16:43Z</time>
      </trkpt>
      <trkpt lat="46.77873" lon="6.26479">
        <ele>842.73</ele>
        <time>2019-06-01T12:16:54Z</time>
      </trkpt>
      <trkpt lat="46.77882" lon="6.26488">
        <ele>842.73</ele>
        <time>2019-06-01T12:16:56Z</time>
      </trkpt>
      <trkpt lat="46.77957" lon="6.26576">
        <ele>842.73</ele>
        <time>2019-06-01T12:17:11Z</time>
      </trkpt>
      <trkpt lat="46.78035" lon="6.26657">
        <ele>842.73</ele>
        <time>2019-06-01T12:17:25Z</time>
      </trkpt>
      <trkpt lat="46.78059" lon="6.2668">
        <ele>842.73</ele>
        <time>2019-06-01T12:17:29Z</time>
      </trkpt>
      <trkpt lat="46.7813" lon="6.26754">
        <ele>842.73</ele>
        <time>2019-06-01T12:17:41Z</time>
      </trkpt>
      <trkpt lat="46.78135" lon="6.26762">
        <ele>842.73</ele>
        <time>2019-06-01T12:17:42Z</time>
      </trkpt>
      <trkpt lat="46.78192" lon="6.26875">
        <ele>843.21</ele>
        <time>2019-06-01T12:17:55Z</time>
      </trkpt>
      <trkpt lat="46.78266" lon="6.27033">
        <ele>843.21</ele>
        <time>2019-06-01T12:18:13Z</time>
      </trkpt>
      <trkpt lat="46.78291" lon="6.27088">
        <ele>843.21</ele>
        <time>2019-06-01T12:18:19Z</time>
      </trkpt>
      <trkpt lat="46.78322" lon="6.27121">
        <ele>843.21</ele>
        <time>2019-06-01T12:18:24Z</time>
      </trkpt>
      <trkpt lat="46.78357" lon="6.27145">
        <ele>842.73</ele>
        <time>2019-06-01T12:18:29Z</time>
      </trkpt>
      <trkpt lat="46.78388" lon="6.27183">
        <ele>842.25</ele>
        <time>2019-06-01T12:18:34Z</time>
      </trkpt>
      <trkpt lat="46.78449" lon="6.27335">
        <ele>841.29</ele>
        <time>2019-06-01T12:18:49Z</time>
      </trkpt>
      <trkpt lat="46.78454" lon="6.27345">
        <ele>841.29</ele>
        <time>2019-06-01T12:18:50Z</time>
      </trkpt>
      <trkpt lat="46.78494" lon="6.27381">
        <ele>840.33</ele>
        <time>2019-06-01T12:18:56Z</time>
      </trkpt>
      <trkpt lat="46.78558" lon="6.27401">
        <ele>838.89</ele>
        <time>2019-06-01T12:19:04Z</time>
      </trkpt>
      <trkpt lat="46.78611" lon="6.27459">
        <ele>837.45</ele>
        <time>2019-06-01T12:19:12Z</time>
      </trkpt>
      <trkpt lat="46.78621" lon="6.27479">
        <ele>837.45</ele>
        <time>2019-06-01T12:19:14Z</time>
      </trkpt>
      <trkpt lat="46.78681" lon="6.27612">
        <ele>836.96</ele>
        <time>2019-06-01T12:19:29Z</time>
      </trkpt>
      <trkpt lat="46.78749" lon="6.2771">
        <ele>836.96</ele>
        <time>2019-06-01T12:19:44Z</time>
      </trkpt>
      <trkpt lat="46.7878" lon="6.27756">
        <ele>837.45</ele>
        <time>2019-06-01T12:19:52Z</time>
      </trkpt>
      <trkpt lat="46.78789" lon="6.27787">
        <ele>837.45</ele>
        <time>2019-06-01T12:20:01Z</time>
      </trkpt>
      <trkpt lat="46.78806" lon="6.27797">
        <ele>836.96</ele>
        <time>2019-06-01T12:20:07Z</time>
      </trkpt>
      <trkpt lat="46.78815" lon="6.27806">
        <ele>837.45</ele>
        <time>2019-06-01T12:20:09Z</time>
      </trkpt>
      <trkpt lat="46.78879" lon="6.27896">
        <ele>837.93</ele>
        <time>2019-06-01T12:20:25Z</time>
      </trkpt>
      <trkpt lat="46.78942" lon="6.27988">
        <ele>838.41</ele>
        <time>2019-06-01T12:20:41Z</time>
      </trkpt>
      <trkpt lat="46.78982" lon="6.28072">
        <ele>838.89</ele>
        <time>2019-06-01T12:20:53Z</time>
      </trkpt>
      <trkpt lat="46.79019" lon="6.28173">
        <ele>838.89</ele>
        <time>2019-06-01T12:21:06Z</time>
      </trkpt>
      <trkpt lat="46.79064" lon="6.28299">
        <ele>839.85</ele>
        <time>2019-06-01T12:21:23Z</time>
      </trkpt>
      <trkpt lat="46.79103" lon="6.2838">
        <ele>839.85</ele>
        <time>2019-06-01T12:21:37Z</time>
      </trkpt>
      <trkpt lat="46.79137" lon="6.28433">
        <ele>839.85</ele>
        <time>2019-06-01T12:21:50Z</time>
      </trkpt>
      <trkpt lat="46.79198" lon="6.28523">
        <ele>839.85</ele>
        <time>2019-06-01T12:22:07Z</time>
      </trkpt>
      <trkpt lat="46.79272" lon="6.28624">
        <ele>840.33</ele>
        <time>2019-06-01T12:22:26Z</time>
      </trkpt>
      <trkpt lat="46.79291" lon="6.28638">
        <ele>840.33</ele>
        <time>2019-06-01T12:22:30Z</time>
      </trkpt>
      <trkpt lat="46.79315" lon="6.28654">
        <ele>840.33</ele>
        <time>2019-06-01T12:22:36Z</time>
      </trkpt>
      <trkpt lat="46.79327" lon="6.28662">
        <ele>840.33</ele>
        <time>2019-06-01T12:22:39Z</time>
      </trkpt>
      <trkpt lat="46.79335" lon="6.28667">
        <ele>840.33</ele>
        <time>2019-06-01T12:22:41Z</time>
      </trkpt>
      <trkpt lat="46.79398" lon="6.28703">
        <ele>840.33</ele>
        <time>2019-06-01T12:22:56Z</time>
      </trkpt>
      <trkpt lat="46.79445" lon="6.2872">
        <ele>840.81</ele>
        <time>2019-06-01T12:23:07Z</time>
      </trkpt>
      <trkpt lat="46.7945" lon="6.28722">
        <ele>840.81</ele>
        <time>2019-06-01T12:23:08Z</time>
      </trkpt>
      <trkpt lat="46.79468" lon="6.28727">
        <ele>840.81</ele>
        <time>2019-06-01T12:23:12Z</time>
      </trkpt>
      <trkpt lat="46.79484" lon="6.28733">
        <ele>841.29</ele>
        <time>2019-06-01T12:23:16Z</time>
      </trkpt>
      <trkpt lat="46.79511" lon="6.28732">
        <ele>841.29</ele>
        <time>2019-06-01T12:23:22Z</time>
      </trkpt>
      <trkpt lat="46.79541" lon="6.28722">
        <ele>841.29</ele>
        <time>2019-06-01T12:23:27Z</time>
      </trkpt>
      <trkpt lat="46.79552" lon="6.2872">
        <ele>841.29</ele>
        <time>2019-06-01T12:23:29Z</time>
      </trkpt>
      <trkpt lat="46.79622" lon="6.28708">
        <ele>841.77</ele>
        <time>2019-06-01T12:23:41Z</time>
      </trkpt>
      <trkpt lat="46.79652" lon="6.28715">
        <ele>841.77</ele>
        <time>2019-06-01T12:23:46Z</time>
      </trkpt>
      <trkpt lat="46.79669" lon="6.28723">
        <ele>841.77</ele>
        <time>2019-06-01T12:23:49Z</time>
      </trkpt>
      <trkpt lat="46.79679" lon="6.2873">
        <ele>841.77</ele>
        <time>2019-06-01T12:23:51Z</time>
      </trkpt>
      <trkpt lat="46.79715" lon="6.2877">
        <ele>842.25</ele>
        <time>2019-06-01T12:23:58Z</time>
      </trkpt>
      <trkpt lat="46.79745" lon="6.28798">
        <ele>842.73</ele>
        <time>2019-06-01T12:24:04Z</time>
      </trkpt>
      <trkpt lat="46.79781" lon="6.28815">
        <ele>842.73</ele>
        <time>2019-06-01T12:24:11Z</time>
      </trkpt>
      <trkpt lat="46.79811" lon="6.28823">
        <ele>842.73</ele>
        <time>2019-06-01T12:24:16Z</time>
      </trkpt>
      <trkpt lat="46.79853" lon="6.28835">
        <ele>843.21</ele>
        <time>2019-06-01T12:24:23Z</time>
      </trkpt>
      <trkpt lat="46.79876" lon="6.28843">
        <ele>843.21</ele>
        <time>2019-06-01T12:24:27Z</time>
      </trkpt>
      <trkpt lat="46.79953" lon="6.28859">
        <ele>843.69</ele>
        <time>2019-06-01T12:24:40Z</time>
      </trkpt>
      <trkpt lat="46.7996" lon="6.28861">
        <ele>843.21</ele>
        <time>2019-06-01T12:24:41Z</time>
      </trkpt>
      <trkpt lat="46.79978" lon="6.28865">
        <ele>843.21</ele>
        <time>2019-06-01T12:24:44Z</time>
      </trkpt>
      <trkpt lat="46.80039" lon="6.2889">
        <ele>843.21</ele>
        <time>2019-06-01T12:24:58Z</time>
      </trkpt>
      <trkpt lat="46.80055" lon="6.28899">
        <ele>843.21</ele>
        <time>2019-06-01T12:25:03Z</time>
      </trkpt>
      <trkpt lat="46.80102" lon="6.28931">
        <ele>843.69</ele>
        <time>2019-06-01T12:25:15Z</time>
      </trkpt>
      <trkpt lat="46.80123" lon="6.28942">
        <ele>844.18</ele>
        <time>2019-06-01T12:25:20Z</time>
      </trkpt>
      <trkpt lat="46.80149" lon="6.28961">
        <ele>844.18</ele>
        <time>2019-06-01T12:25:27Z</time>
      </trkpt>
      <trkpt lat="46.80197" lon="6.28996">
        <ele>844.66</ele>
        <time>2019-06-01T12:25:39Z</time>
      </trkpt>
      <trkpt lat="46.80221" lon="6.29011">
        <ele>844.66</ele>
        <time>2019-06-01T12:25:44Z</time>
      </trkpt>
      <trkpt lat="46.80247" lon="6.29028">
        <ele>844.66</ele>
        <time>2019-06-01T12:25:49Z</time>
      </trkpt>
      <trkpt lat="46.80287" lon="6.29058">
        <ele>844.18</ele>
        <time>2019-06-01T12:25:57Z</time>
      </trkpt>
      <trkpt lat="46.80341" lon="6.29139">
        <ele>845.14</ele>
        <time>2019-06-01T12:26:10Z</time>
      </trkpt>
      <trkpt lat="46.80399" lon="6.2926">
        <ele>845.62</ele>
        <time>2019-06-01T12:26:27Z</time>
      </trkpt>
      <trkpt lat="46.8047" lon="6.29405">
        <ele>846.1</ele>
        <time>2019-06-01T12:26:47Z</time>
      </trkpt>
      <trkpt lat="46.80479" lon="6.29418">
        <ele>846.1</ele>
        <time>2019-06-01T12:26:49Z</time>
      </trkpt>
      <trkpt lat="46.80556" lon="6.29505">
        <ele>846.1</ele>
        <time>2019-06-01T12:27:05Z</time>
      </trkpt>
      <trkpt lat="46.80654" lon="6.29609">
        <ele>845.62</ele>
        <time>2019-06-01T12:27:24Z</time>
      </trkpt>
      <trkpt lat="46.80736" lon="6.29698">
        <ele>846.1</ele>
        <time>2019-06-01T12:27:41Z</time>
      </trkpt>
      <trkpt lat="46.80819" lon="6.2979">
        <ele>846.58</ele>
        <time>2019-06-01T12:27:58Z</time>
      </trkpt>
      <trkpt lat="46.80913" lon="6.29884">
        <ele>847.06</ele>
        <time>2019-06-01T12:28:17Z</time>
      </trkpt>
      <trkpt lat="46.80999" lon="6.29961">
        <ele>847.06</ele>
        <time>2019-06-01T12:28:33Z</time>
      </trkpt>
      <trkpt lat="46.81083" lon="6.30036">
        <ele>847.54</ele>
        <time>2019-06-01T12:28:49Z</time>
      </trkpt>
      <trkpt lat="46.81165" lon="6.30112">
        <ele>848.02</ele>
        <time>2019-06-01T12:29:05Z</time>
      </trkpt>
      <trkpt lat="46.81189" lon="6.30133">
        <ele>847.54</ele>
        <time>2019-06-01T12:29:10Z</time>
      </trkpt>
      <trkpt lat="46.81239" lon="6.30174">
        <ele>847.06</ele>
        <time>2019-06-01T12:29:20Z</time>
      </trkpt>
      <trkpt lat="46.81319" lon="6.30276">
        <ele>846.1</ele>
        <time>2019-06-01T12:29:38Z</time>
      </trkpt>
      <trkpt lat="46.81327" lon="6.30302">
        <ele>847.06</ele>
        <time>2019-06-01T12:29:42Z</time>
      </trkpt>
      <trkpt lat="46.81328" lon="6.30337">
        <ele>848.02</ele>
        <time>2019-06-01T12:29:47Z</time>
      </trkpt>
      <trkpt lat="46.81328" lon="6.30351">
        <ele>848.5</ele>
        <time>2019-06-01T12:29:49Z</time>
      </trkpt>
      <trkpt lat="46.81329" lon="6.30379">
        <ele>848.98</ele>
        <time>2019-06-01T12:29:53Z</time>
      </trkpt>
      <trkpt lat="46.8133" lon="6.30401">
        <ele>849.46</ele>
        <time>2019-06-01T12:29:56Z</time>
      </trkpt>
      <trkpt lat="46.81334" lon="6.30422">
        <ele>849.46</ele>
        <time>2019-06-01T12:29:59Z</time>
      </trkpt>
      <trkpt lat="46.81368" lon="6.305">
        <ele>849.94</ele>
        <time>2019-06-01T12:30:14Z</time>
      </trkpt>
      <trkpt lat="46.81376" lon="6.30514">
        <ele>849.94</ele>
        <time>2019-06-01T12:30:17Z</time>
      </trkpt>
      <trkpt lat="46.81423" lon="6.30576">
        <ele>850.9</ele>
        <time>2019-06-01T12:30:31Z</time>
      </trkpt>
      <trkpt lat="46.81446" lon="6.30604">
        <ele>851.38</ele>
        <time>2019-06-01T12:30:37Z</time>
      </trkpt>
      <trkpt lat="46.81507" lon="6.30682">
        <ele>852.35</ele>
        <time>2019-06-01T12:30:54Z</time>
      </trkpt>
      <trkpt lat="46.81551" lon="6.30732">
        <ele>853.31</ele>
        <time>2019-06-01T12:31:05Z</time>
      </trkpt>
      <trkpt lat="46.81565" lon="6.30742">
        <ele>853.31</ele>
        <time>2019-06-01T12:31:08Z</time>
      </trkpt>
      <trkpt lat="46.81579" lon="6.30747">
        <ele>853.79</ele>
        <time>2019-06-01T12:31:11Z</time>
      </trkpt>
      <trkpt lat="46.81593" lon="6.3075">
        <ele>853.79</ele>
        <time>2019-06-01T12:31:14Z</time>
      </trkpt>
      <trkpt lat="46.8162" lon="6.30764">
        <ele>854.27</ele>
        <time>2019-06-01T12:31:20Z</time>
      </trkpt>
      <trkpt lat="46.81654" lon="6.30792">
        <ele>854.75</ele>
        <time>2019-06-01T12:31:28Z</time>
      </trkpt>
      <trkpt lat="46.81726" lon="6.30858">
        <ele>855.71</ele>
        <time>2019-06-01T12:31:45Z</time>
      </trkpt>
      <trkpt lat="46.81738" lon="6.30883">
        <ele>856.19</ele>
        <time>2019-06-01T12:31:49Z</time>
      </trkpt>
      <trkpt lat="46.81751" lon="6.30941">
        <ele>856.67</ele>
        <time>2019-06-01T12:31:57Z</time>
      </trkpt>
      <trkpt lat="46.81757" lon="6.30962">
        <ele>857.15</ele>
        <time>2019-06-01T12:32:00Z</time>
      </trkpt>
      <trkpt lat="46.81763" lon="6.30975">
        <ele>857.15</ele>
        <time>2019-06-01T12:32:02Z</time>
      </trkpt>
      <trkpt lat="46.81772" lon="6.30992">
        <ele>857.15</ele>
        <time>2019-06-01T12:32:05Z</time>
      </trkpt>
      <trkpt lat="46.81811" lon="6.31039">
        <ele>858.11</ele>
        <time>2019-06-01T12:32:15Z</time>
      </trkpt>
      <trkpt lat="46.81823" lon="6.3105">
        <ele>858.11</ele>
        <time>2019-06-01T12:32:18Z</time>
      </trkpt>
      <trkpt lat="46.81873" lon="6.31073">
        <ele>858.59</ele>
        <time>2019-06-01T12:32:30Z</time>
      </trkpt>
      <trkpt lat="46.81893" lon="6.31092">
        <ele>858.59</ele>
        <time>2019-06-01T12:32:35Z</time>
      </trkpt>
      <trkpt lat="46.81905" lon="6.3111">
        <ele>859.56</ele>
        <time>2019-06-01T12:32:39Z</time>
      </trkpt>
      <trkpt lat="46.81927" lon="6.31138">
        <ele>860.04</ele>
        <time>2019-06-01T12:32:45Z</time>
      </trkpt>
      <trkpt lat="46.81938" lon="6.31148">
        <ele>860.04</ele>
        <time>2019-06-01T12:32:48Z</time>
      </trkpt>
      <trkpt lat="46.81951" lon="6.31157">
        <ele>860.52</ele>
        <time>2019-06-01T12:32:51Z</time>
      </trkpt>
      <trkpt lat="46.82016" lon="6.31179">
        <ele>861</ele>
        <time>2019-06-01T12:33:07Z</time>
      </trkpt>
      <trkpt lat="46.82031" lon="6.31183">
        <ele>861</ele>
        <time>2019-06-01T12:33:11Z</time>
      </trkpt>
      <trkpt lat="46.82087" lon="6.31198">
        <ele>862.44</ele>
        <time>2019-06-01T12:33:25Z</time>
      </trkpt>
      <trkpt lat="46.82096" lon="6.31197">
        <ele>862.44</ele>
        <time>2019-06-01T12:33:27Z</time>
      </trkpt>
      <trkpt lat="46.82108" lon="6.31194">
        <ele>862.92</ele>
        <time>2019-06-01T12:33:30Z</time>
      </trkpt>
      <trkpt lat="46.82125" lon="6.31184">
        <ele>862.92</ele>
        <time>2019-06-01T12:33:34Z</time>
      </trkpt>
      <trkpt lat="46.82202" lon="6.31138">
        <ele>864.36</ele>
        <time>2019-06-01T12:33:52Z</time>
      </trkpt>
      <trkpt lat="46.82215" lon="6.3113">
        <ele>864.36</ele>
        <time>2019-06-01T12:33:55Z</time>
      </trkpt>
      <trkpt lat="46.82233" lon="6.31118">
        <ele>864.84</ele>
        <time>2019-06-01T12:33:59Z</time>
      </trkpt>
      <trkpt lat="46.82305" lon="6.31047">
        <ele>864.84</ele>
        <time>2019-06-01T12:34:17Z</time>
      </trkpt>
      <trkpt lat="46.82359" lon="6.30986">
        <ele>864.36</ele>
        <time>2019-06-01T12:34:30Z</time>
      </trkpt>
      <trkpt lat="46.82449" lon="6.30921">
        <ele>863.88</ele>
        <time>2019-06-01T12:34:46Z</time>
      </trkpt>
      <trkpt lat="46.82473" lon="6.30914">
        <ele>864.36</ele>
        <time>2019-06-01T12:34:50Z</time>
      </trkpt>
      <trkpt lat="46.82541" lon="6.30941">
        <ele>866.77</ele>
        <time>2019-06-01T12:35:03Z</time>
      </trkpt>
      <trkpt lat="46.82558" lon="6.30957">
        <ele>866.77</ele>
        <time>2019-06-01T12:35:07Z</time>
      </trkpt>
      <trkpt lat="46.82609" lon="6.31004">
        <ele>867.73</ele>
        <time>2019-06-01T12:35:19Z</time>
      </trkpt>
      <trkpt lat="46.8262" lon="6.31015">
        <ele>868.21</ele>
        <time>2019-06-01T12:35:22Z</time>
      </trkpt>
      <trkpt lat="46.8263" lon="6.31032">
        <ele>868.69</ele>
        <time>2019-06-01T12:35:25Z</time>
      </trkpt>
      <trkpt lat="46.82643" lon="6.31064">
        <ele>869.17</ele>
        <time>2019-06-01T12:35:30Z</time>
      </trkpt>
      <trkpt lat="46.82649" lon="6.31086">
        <ele>869.65</ele>
        <time>2019-06-01T12:35:33Z</time>
      </trkpt>
      <trkpt lat="46.82654" lon="6.3111">
        <ele>870.13</ele>
        <time>2019-06-01T12:35:36Z</time>
      </trkpt>
      <trkpt lat="46.82681" lon="6.31234">
        <ele>871.09</ele>
        <time>2019-06-01T12:35:52Z</time>
      </trkpt>
      <trkpt lat="46.82733" lon="6.31355">
        <ele>872.05</ele>
        <time>2019-06-01T12:36:10Z</time>
      </trkpt>
      <trkpt lat="46.82787" lon="6.31467">
        <ele>873.5</ele>
        <time>2019-06-01T12:36:26Z</time>
      </trkpt>
      <trkpt lat="46.82794" lon="6.3148">
        <ele>873.5</ele>
        <time>2019-06-01T12:36:28Z</time>
      </trkpt>
      <trkpt lat="46.82807" lon="6.31501">
        <ele>873.5</ele>
        <time>2019-06-01T12:36:32Z</time>
      </trkpt>
      <trkpt lat="46.82847" lon="6.31545">
        <ele>872.53</ele>
        <time>2019-06-01T12:36:44Z</time>
      </trkpt>
      <trkpt lat="46.82855" lon="6.31553">
        <ele>872.53</ele>
        <time>2019-06-01T12:36:46Z</time>
      </trkpt>
      <trkpt lat="46.82869" lon="6.31563">
        <ele>872.53</ele>
        <time>2019-06-01T12:36:49Z</time>
      </trkpt>
      <trkpt lat="46.82878" lon="6.31569">
        <ele>872.53</ele>
        <time>2019-06-01T12:36:51Z</time>
      </trkpt>
      <trkpt lat="46.82949" lon="6.31618">
        <ele>871.57</ele>
        <time>2019-06-01T12:37:04Z</time>
      </trkpt>
      <trkpt lat="46.8301" lon="6.31657">
        <ele>870.61</ele>
        <time>2019-06-01T12:37:13Z</time>
      </trkpt>
      <trkpt lat="46.83098" lon="6.31716">
        <ele>868.69</ele>
        <time>2019-06-01T12:37:25Z</time>
      </trkpt>
      <trkpt lat="46.83123" lon="6.3175">
        <ele>868.21</ele>
        <time>2019-06-01T12:37:29Z</time>
      </trkpt>
      <trkpt lat="46.83193" lon="6.31843">
        <ele>867.25</ele>
        <time>2019-06-01T12:37:41Z</time>
      </trkpt>
      <trkpt lat="46.83208" lon="6.31853">
        <ele>867.25</ele>
        <time>2019-06-01T12:37:43Z</time>
      </trkpt>
      <trkpt lat="46.83237" lon="6.31909">
        <ele>866.29</ele>
        <time>2019-06-01T12:37:49Z</time>
      </trkpt>
      <trkpt lat="46.83246" lon="6.31952">
        <ele>866.77</ele>
        <time>2019-06-01T12:37:53Z</time>
      </trkpt>
      <trkpt lat="46.83297" lon="6.32018">
        <ele>865.8</ele>
        <time>2019-06-01T12:38:02Z</time>
      </trkpt>
      <trkpt lat="46.8332" lon="6.32028">
        <ele>864.84</ele>
        <time>2019-06-01T12:38:05Z</time>
      </trkpt>
      <trkpt lat="46.8335" lon="6.3209">
        <ele>864.36</ele>
        <time>2019-06-01T12:38:12Z</time>
      </trkpt>
      <trkpt lat="46.83352" lon="6.32122">
        <ele>864.36</ele>
        <time>2019-06-01T12:38:15Z</time>
      </trkpt>
      <trkpt lat="46.83349" lon="6.32155">
        <ele>863.88</ele>
        <time>2019-06-01T12:38:18Z</time>
      </trkpt>
      <trkpt lat="46.8335" lon="6.3225">
        <ele>863.88</ele>
        <time>2019-06-01T12:38:27Z</time>
      </trkpt>
      <trkpt lat="46.83353" lon="6.3227">
        <ele>863.88</ele>
        <time>2019-06-01T12:38:29Z</time>
      </trkpt>
      <trkpt lat="46.83358" lon="6.3231">
        <ele>863.88</ele>
        <time>2019-06-01T12:38:33Z</time>
      </trkpt>
      <trkpt lat="46.83389" lon="6.3245">
        <ele>863.88</ele>
        <time>2019-06-01T12:38:48Z</time>
      </trkpt>
      <trkpt lat="46.83399" lon="6.32487">
        <ele>863.88</ele>
        <time>2019-06-01T12:38:52Z</time>
      </trkpt>
      <trkpt lat="46.83426" lon="6.32567">
        <ele>863.88</ele>
        <time>2019-06-01T12:39:02Z</time>
      </trkpt>
      <trkpt lat="46.83431" lon="6.32579">
        <ele>863.4</ele>
        <time>2019-06-01T12:39:04Z</time>
      </trkpt>
      <trkpt lat="46.83444" lon="6.326">
        <ele>863.4</ele>
        <time>2019-06-01T12:39:08Z</time>
      </trkpt>
      <trkpt lat="46.83461" lon="6.32624">
        <ele>863.4</ele>
        <time>2019-06-01T12:39:12Z</time>
      </trkpt>
      <trkpt lat="46.83473" lon="6.32645">
        <ele>863.88</ele>
        <time>2019-06-01T12:39:15Z</time>
      </trkpt>
      <trkpt lat="46.83482" lon="6.32665">
        <ele>863.4</ele>
        <time>2019-06-01T12:39:18Z</time>
      </trkpt>
      <trkpt lat="46.8351" lon="6.32751">
        <ele>863.88</ele>
        <time>2019-06-01T12:39:30Z</time>
      </trkpt>
      <trkpt lat="46.83516" lon="6.32766">
        <ele>863.88</ele>
        <time>2019-06-01T12:39:32Z</time>
      </trkpt>
      <trkpt lat="46.83552" lon="6.32851">
        <ele>863.88</ele>
        <time>2019-06-01T12:39:43Z</time>
      </trkpt>
      <trkpt lat="46.83558" lon="6.32867">
        <ele>863.88</ele>
        <time>2019-06-01T12:39:45Z</time>
      </trkpt>
      <trkpt lat="46.83575" lon="6.32914">
        <ele>863.88</ele>
        <time>2019-06-01T12:39:51Z</time>
      </trkpt>
      <trkpt lat="46.83589" lon="6.32961">
        <ele>863.88</ele>
        <time>2019-06-01T12:39:57Z</time>
      </trkpt>
      <trkpt lat="46.83609" lon="6.33069">
        <ele>863.4</ele>
        <time>2019-06-01T12:40:09Z</time>
      </trkpt>
      <trkpt lat="46.83659" lon="6.33141">
        <ele>862.44</ele>
        <time>2019-06-01T12:40:21Z</time>
      </trkpt>
      <trkpt lat="46.83679" lon="6.33153">
        <ele>861.96</ele>
        <time>2019-06-01T12:40:26Z</time>
      </trkpt>
      <trkpt lat="46.83676" lon="6.33166">
        <ele>860.52</ele>
        <time>2019-06-01T12:40:33Z</time>
      </trkpt>
      <trkpt lat="46.83658" lon="6.33193">
        <ele>857.63</ele>
        <time>2019-06-01T12:40:42Z</time>
      </trkpt>
      <trkpt lat="46.83656" lon="6.33218">
        <ele>855.23</ele>
        <time>2019-06-01T12:40:49Z</time>
      </trkpt>
      <trkpt lat="46.8366" lon="6.33231">
        <ele>853.79</ele>
        <time>2019-06-01T12:40:53Z</time>
      </trkpt>
      <trkpt lat="46.83675" lon="6.33231">
        <ele>854.27</ele>
        <time>2019-06-01T12:41:01Z</time>
      </trkpt>
      <trkpt lat="46.83685" lon="6.33232">
        <ele>854.27</ele>
        <time>2019-06-01T12:41:10Z</time>
      </trkpt>
      <trkpt lat="46.83685" lon="6.33244">
        <ele>853.31</ele>
        <time>2019-06-01T12:41:15Z</time>
      </trkpt>
      <trkpt lat="46.83675" lon="6.33273">
        <ele>849.46</ele>
        <time>2019-06-01T12:41:25Z</time>
      </trkpt>
      <trkpt lat="46.83674" lon="6.33276">
        <ele>848.98</ele>
        <time>2019-06-01T12:41:26Z</time>
      </trkpt>
      <trkpt lat="46.83676" lon="6.33283">
        <ele>847.54</ele>
        <time>2019-06-01T12:41:35Z</time>
      </trkpt>
      <trkpt lat="46.83677" lon="6.33285">
        <ele>847.54</ele>
        <time>2019-06-01T12:41:38Z</time>
      </trkpt>
      <trkpt lat="46.83684" lon="6.33296">
        <ele>846.58</ele>
        <time>2019-06-01T12:41:44Z</time>
      </trkpt>
      <trkpt lat="46.83685" lon="6.33302">
        <ele>846.1</ele>
        <time>2019-06-01T12:41:55Z</time>
      </trkpt>
      <trkpt lat="46.83685" lon="6.33302">
        <ele>846.1</ele>
        <time>2019-06-01T12:42:16Z</time>
      </trkpt>
      <trkpt lat="46.83685" lon="6.33302">
        <ele>846.1</ele>
        <time>2019-06-01T12:42:44Z</time>
      </trkpt>
      <trkpt lat="46.83687" lon="6.33299">
        <ele>846.58</ele>
        <time>2019-06-01T12:42:59Z</time>
      </trkpt>
      <trkpt lat="46.83688" lon="6.33298">
        <ele>846.1</ele>
        <time>2019-06-01T12:43:22Z</time>
      </trkpt>
      <trkpt lat="46.83687" lon="6.33294">
        <ele>846.58</ele>
        <time>2019-06-01T12:43:25Z</time>
      </trkpt>
      <trkpt lat="46.83678" lon="6.33285">
        <ele>847.54</ele>
        <time>2019-06-01T12:43:36Z</time>
      </trkpt>
      <trkpt lat="46.83673" lon="6.33279">
        <ele>848.5</ele>
        <time>2019-06-01T12:43:50Z</time>
      </trkpt>
      <trkpt lat="46.83674" lon="6.33277">
        <ele>848.5</ele>
        <time>2019-06-01T12:44:03Z</time>
      </trkpt>
      <trkpt lat="46.83681" lon="6.3326">
        <ele>851.38</ele>
        <time>2019-06-01T12:44:15Z</time>
      </trkpt>
      <trkpt lat="46.83685" lon="6.33245">
        <ele>853.31</ele>
        <time>2019-06-01T12:44:25Z</time>
      </trkpt>
      <trkpt lat="46.83685" lon="6.33242">
        <ele>853.31</ele>
        <time>2019-06-01T12:44:26Z</time>
      </trkpt>
      <trkpt lat="46.83681" lon="6.33234">
        <ele>854.75</ele>
        <time>2019-06-01T12:44:37Z</time>
      </trkpt>
      <trkpt lat="46.83678" lon="6.33232">
        <ele>854.75</ele>
        <time>2019-06-01T12:44:40Z</time>
      </trkpt>
      <trkpt lat="46.83677" lon="6.33225">
        <ele>855.23</ele>
        <time>2019-06-01T12:44:44Z</time>
      </trkpt>
      <trkpt lat="46.83682" lon="6.3322">
        <ele>856.19</ele>
        <time>2019-06-01T12:44:48Z</time>
      </trkpt>
      <trkpt lat="46.83684" lon="6.33218">
        <ele>856.67</ele>
        <time>2019-06-01T12:44:50Z</time>
      </trkpt>
      <trkpt lat="46.8369" lon="6.33204">
        <ele>858.11</ele>
        <time>2019-06-01T12:44:55Z</time>
      </trkpt>
      <trkpt lat="46.8369" lon="6.33185">
        <ele>859.56</ele>
        <time>2019-06-01T12:45:01Z</time>
      </trkpt>
      <trkpt lat="46.83689" lon="6.33177">
        <ele>860.52</ele>
        <time>2019-06-01T12:45:03Z</time>
      </trkpt>
      <trkpt lat="46.83687" lon="6.33163">
        <ele>861.96</ele>
        <time>2019-06-01T12:45:08Z</time>
      </trkpt>
      <trkpt lat="46.83688" lon="6.33157">
        <ele>862.44</ele>
        <time>2019-06-01T12:45:12Z</time>
      </trkpt>
      <trkpt lat="46.83692" lon="6.3316">
        <ele>862.92</ele>
        <time>2019-06-01T12:45:15Z</time>
      </trkpt>
      <trkpt lat="46.83699" lon="6.33165">
        <ele>862.44</ele>
        <time>2019-06-01T12:45:19Z</time>
      </trkpt>
      <trkpt lat="46.83718" lon="6.33184">
        <ele>861.96</ele>
        <time>2019-06-01T12:45:32Z</time>
      </trkpt>
      <trkpt lat="46.83739" lon="6.33195">
        <ele>861.96</ele>
        <time>2019-06-01T12:45:41Z</time>
      </trkpt>
      <trkpt lat="46.83752" lon="6.33219">
        <ele>861.48</ele>
        <time>2019-06-01T12:45:49Z</time>
      </trkpt>
      <trkpt lat="46.83783" lon="6.33241">
        <ele>861.48</ele>
        <time>2019-06-01T12:45:55Z</time>
      </trkpt>
      <trkpt lat="46.83804" lon="6.33253">
        <ele>861</ele>
        <time>2019-06-01T12:45:59Z</time>
      </trkpt>
      <trkpt lat="46.83815" lon="6.33259">
        <ele>861</ele>
        <time>2019-06-01T12:46:01Z</time>
      </trkpt>
      <trkpt lat="46.83849" lon="6.33273">
        <ele>860.52</ele>
        <time>2019-06-01T12:46:07Z</time>
      </trkpt>
      <trkpt lat="46.83867" lon="6.33275">
        <ele>860.04</ele>
        <time>2019-06-01T12:46:10Z</time>
      </trkpt>
      <trkpt lat="46.83892" lon="6.3326">
        <ele>859.08</ele>
        <time>2019-06-01T12:46:14Z</time>
      </trkpt>
      <trkpt lat="46.83907" lon="6.33238">
        <ele>859.56</ele>
        <time>2019-06-01T12:46:17Z</time>
      </trkpt>
      <trkpt lat="46.83917" lon="6.33203">
        <ele>858.59</ele>
        <time>2019-06-01T12:46:21Z</time>
      </trkpt>
      <trkpt lat="46.83914" lon="6.33165">
        <ele>858.59</ele>
        <time>2019-06-01T12:46:25Z</time>
      </trkpt>
      <trkpt lat="46.83913" lon="6.33147">
        <ele>858.11</ele>
        <time>2019-06-01T12:46:27Z</time>
      </trkpt>
      <trkpt lat="46.83913" lon="6.33127">
        <ele>858.11</ele>
        <time>2019-06-01T12:46:29Z</time>
      </trkpt>
      <trkpt lat="46.8392" lon="6.33068">
        <ele>858.11</ele>
        <time>2019-06-01T12:46:35Z</time>
      </trkpt>
      <trkpt lat="46.83947" lon="6.33024">
        <ele>857.63</ele>
        <time>2019-06-01T12:46:41Z</time>
      </trkpt>
      <trkpt lat="46.83965" lon="6.3302">
        <ele>857.63</ele>
        <time>2019-06-01T12:46:44Z</time>
      </trkpt>
      <trkpt lat="46.84013" lon="6.33014">
        <ele>856.19</ele>
        <time>2019-06-01T12:46:53Z</time>
      </trkpt>
      <trkpt lat="46.84056" lon="6.33019">
        <ele>855.71</ele>
        <time>2019-06-01T12:47:01Z</time>
      </trkpt>
      <trkpt lat="46.84112" lon="6.33034">
        <ele>855.23</ele>
        <time>2019-06-01T12:47:10Z</time>
      </trkpt>
      <trkpt lat="46.84175" lon="6.3306">
        <ele>854.75</ele>
        <time>2019-06-01T12:47:20Z</time>
      </trkpt>
      <trkpt lat="46.84188" lon="6.33084">
        <ele>854.75</ele>
        <time>2019-06-01T12:47:23Z</time>
      </trkpt>
      <trkpt lat="46.84207" lon="6.33139">
        <ele>853.79</ele>
        <time>2019-06-01T12:47:29Z</time>
      </trkpt>
      <trkpt lat="46.84241" lon="6.33239">
        <ele>852.83</ele>
        <time>2019-06-01T12:47:40Z</time>
      </trkpt>
      <trkpt lat="46.84252" lon="6.33308">
        <ele>852.83</ele>
        <time>2019-06-01T12:47:47Z</time>
      </trkpt>
      <trkpt lat="46.84287" lon="6.3335">
        <ele>852.35</ele>
        <time>2019-06-01T12:47:54Z</time>
      </trkpt>
      <trkpt lat="46.84313" lon="6.33335">
        <ele>851.87</ele>
        <time>2019-06-01T12:47:58Z</time>
      </trkpt>
      <trkpt lat="46.84329" lon="6.33314">
        <ele>851.87</ele>
        <time>2019-06-01T12:48:01Z</time>
      </trkpt>
      <trkpt lat="46.84356" lon="6.33255">
        <ele>852.35</ele>
        <time>2019-06-01T12:48:08Z</time>
      </trkpt>
      <trkpt lat="46.84378" lon="6.33182">
        <ele>851.38</ele>
        <time>2019-06-01T12:48:16Z</time>
      </trkpt>
      <trkpt lat="46.84428" lon="6.33144">
        <ele>851.38</ele>
        <time>2019-06-01T12:48:25Z</time>
      </trkpt>
      <trkpt lat="46.8444" lon="6.33149">
        <ele>851.38</ele>
        <time>2019-06-01T12:48:27Z</time>
      </trkpt>
      <trkpt lat="46.84512" lon="6.33199">
        <ele>851.38</ele>
        <time>2019-06-01T12:48:40Z</time>
      </trkpt>
      <trkpt lat="46.84536" lon="6.33209">
        <ele>851.87</ele>
        <time>2019-06-01T12:48:44Z</time>
      </trkpt>
      <trkpt lat="46.84572" lon="6.33222">
        <ele>851.38</ele>
        <time>2019-06-01T12:48:50Z</time>
      </trkpt>
      <trkpt lat="46.84595" lon="6.33232">
        <ele>851.87</ele>
        <time>2019-06-01T12:48:54Z</time>
      </trkpt>
      <trkpt lat="46.8468" lon="6.33279">
        <ele>851.87</ele>
        <time>2019-06-01T12:49:09Z</time>
      </trkpt>
      <trkpt lat="46.8477" lon="6.33321">
        <ele>851.87</ele>
        <time>2019-06-01T12:49:24Z</time>
      </trkpt>
      <trkpt lat="46.84834" lon="6.33337">
        <ele>850.9</ele>
        <time>2019-06-01T12:49:34Z</time>
      </trkpt>
      <trkpt lat="46.84845" lon="6.3334">
        <ele>850.9</ele>
        <time>2019-06-01T12:49:36Z</time>
      </trkpt>
      <trkpt lat="46.84859" lon="6.33358">
        <ele>850.9</ele>
        <time>2019-06-01T12:49:44Z</time>
      </trkpt>
      <trkpt lat="46.84859" lon="6.33358">
        <ele>850.9</ele>
        <time>2019-06-01T12:50:00Z</time>
      </trkpt>
      <trkpt lat="46.84847" lon="6.33373">
        <ele>851.38</ele>
        <time>2019-06-01T12:50:09Z</time>
      </trkpt>
      <trkpt lat="46.84837" lon="6.33384">
        <ele>851.87</ele>
        <time>2019-06-01T12:50:14Z</time>
      </trkpt>
      <trkpt lat="46.84845" lon="6.33381">
        <ele>851.87</ele>
        <time>2019-06-01T12:50:20Z</time>
      </trkpt>
      <trkpt lat="46.8485" lon="6.33376">
        <ele>851.38</ele>
        <time>2019-06-01T12:50:22Z</time>
      </trkpt>
      <trkpt lat="46.84858" lon="6.33367">
        <ele>850.9</ele>
        <time>2019-06-01T12:50:27Z</time>
      </trkpt>
      <trkpt lat="46.84867" lon="6.3336">
        <ele>850.9</ele>
        <time>2019-06-01T12:50:33Z</time>
      </trkpt>
      <trkpt lat="46.84869" lon="6.33358">
        <ele>850.9</ele>
        <time>2019-06-01T12:50:35Z</time>
      </trkpt>
      <trkpt lat="46.84861" lon="6.33353">
        <ele>850.9</ele>
        <time>2019-06-01T12:50:42Z</time>
      </trkpt>
      <trkpt lat="46.8487" lon="6.33356">
        <ele>850.9</ele>
        <time>2019-06-01T12:50:48Z</time>
      </trkpt>
      <trkpt lat="46.84892" lon="6.33346">
        <ele>849.94</ele>
        <time>2019-06-01T12:50:52Z</time>
      </trkpt>
      <trkpt lat="46.85003" lon="6.33327">
        <ele>849.46</ele>
        <time>2019-06-01T12:51:10Z</time>
      </trkpt>
      <trkpt lat="46.8509" lon="6.33339">
        <ele>849.94</ele>
        <time>2019-06-01T12:51:25Z</time>
      </trkpt>
      <trkpt lat="46.85102" lon="6.33348">
        <ele>850.42</ele>
        <time>2019-06-01T12:51:28Z</time>
      </trkpt>
      <trkpt lat="46.85141" lon="6.33378">
        <ele>850.9</ele>
        <time>2019-06-01T12:51:38Z</time>
      </trkpt>
      <trkpt lat="46.85161" lon="6.33395">
        <ele>850.9</ele>
        <time>2019-06-01T12:51:43Z</time>
      </trkpt>
      <trkpt lat="46.85177" lon="6.33411">
        <ele>851.38</ele>
        <time>2019-06-01T12:51:47Z</time>
      </trkpt>
      <trkpt lat="46.85251" lon="6.33459">
        <ele>852.35</ele>
        <time>2019-06-01T12:52:05Z</time>
      </trkpt>
      <trkpt lat="46.85313" lon="6.33519">
        <ele>853.79</ele>
        <time>2019-06-01T12:52:21Z</time>
      </trkpt>
      <trkpt lat="46.85324" lon="6.33531">
        <ele>853.79</ele>
        <time>2019-06-01T12:52:24Z</time>
      </trkpt>
      <trkpt lat="46.85338" lon="6.33522">
        <ele>853.79</ele>
        <time>2019-06-01T12:52:30Z</time>
      </trkpt>
      <trkpt lat="46.8533" lon="6.3351">
        <ele>854.27</ele>
        <time>2019-06-01T12:52:37Z</time>
      </trkpt>
      <trkpt lat="46.85326" lon="6.33514">
        <ele>854.27</ele>
        <time>2019-06-01T12:52:47Z</time>
      </trkpt>
      <trkpt lat="46.85326" lon="6.33514">
        <ele>850.42</ele>
        <time>2019-06-01T12:52:54Z</time>
      </trkpt>
      <trkpt lat="46.85326" lon="6.33514">
        <ele>856.67</ele>
        <time>2019-06-01T12:52:55Z</time>
      </trkpt>
      <trkpt lat="46.85326" lon="6.33514">
        <ele>854.27</ele>
        <time>2019-06-01T12:53:25Z</time>
      </trkpt>
      <trkpt lat="46.85326" lon="6.33514">
        <ele>854.27</ele>
        <time>2019-06-01T12:54:00Z</time>
      </trkpt>
      <trkpt lat="46.85326" lon="6.33514">
        <ele>854.27</ele>
        <time>2019-06-01T12:54:26Z</time>
      </trkpt>
      <trkpt lat="46.85326" lon="6.33513">
        <ele>854.27</ele>
        <time>2019-06-01T12:54:57Z</time>
      </trkpt>
      <trkpt lat="46.85326" lon="6.33513">
        <ele>854.27</ele>
        <time>2019-06-01T12:55:25Z</time>
      </trkpt>
      <trkpt lat="46.85326" lon="6.33512">
        <ele>854.27</ele>
        <time>2019-06-01T12:55:55Z</time>
      </trkpt>
      <trkpt lat="46.85326" lon="6.33512">
        <ele>854.27</ele>
        <time>2019-06-01T12:56:22Z</time>
      </trkpt>
      <trkpt lat="46.85327" lon="6.33513">
        <ele>854.27</ele>
        <time>2019-06-01T12:56:36Z</time>
      </trkpt>
      <trkpt lat="46.85327" lon="6.33513">
        <ele>854.27</ele>
        <time>2019-06-01T12:56:38Z</time>
      </trkpt>
      <trkpt lat="46.85323" lon="6.33516">
        <ele>853.79</ele>
        <time>2019-06-01T12:56:41Z</time>
      </trkpt>
      <trkpt lat="46.85297" lon="6.33491">
        <ele>848.5</ele>
        <time>2019-06-01T12:56:50Z</time>
      </trkpt>
      <trkpt lat="46.85293" lon="6.33487">
        <ele>854.27</ele>
        <time>2019-06-01T12:56:51Z</time>
      </trkpt>
      <trkpt lat="46.85286" lon="6.3348">
        <ele>849.46</ele>
        <time>2019-06-01T12:56:53Z</time>
      </trkpt>
      <trkpt lat="46.85282" lon="6.33476">
        <ele>855.71</ele>
        <time>2019-06-01T12:56:54Z</time>
      </trkpt>
      <trkpt lat="46.85263" lon="6.33459">
        <ele>851.38</ele>
        <time>2019-06-01T12:56:59Z</time>
      </trkpt>
      <trkpt lat="46.85259" lon="6.33456">
        <ele>854.75</ele>
        <time>2019-06-01T12:57:00Z</time>
      </trkpt>
      <trkpt lat="46.85183" lon="6.33406">
        <ele>851.87</ele>
        <time>2019-06-01T12:57:15Z</time>
      </trkpt>
      <trkpt lat="46.85082" lon="6.33328">
        <ele>850.9</ele>
        <time>2019-06-01T12:57:33Z</time>
      </trkpt>
      <trkpt lat="46.8505" lon="6.33319">
        <ele>850.42</ele>
        <time>2019-06-01T12:57:38Z</time>
      </trkpt>
      <trkpt lat="46.84977" lon="6.33323">
        <ele>850.42</ele>
        <time>2019-06-01T12:57:52Z</time>
      </trkpt>
      <trkpt lat="46.84955" lon="6.33299">
        <ele>850.9</ele>
        <time>2019-06-01T12:58:01Z</time>
      </trkpt>
      <trkpt lat="46.84969" lon="6.33241">
        <ele>851.87</ele>
        <time>2019-06-01T12:58:13Z</time>
      </trkpt>
      <trkpt lat="46.84972" lon="6.33237">
        <ele>851.87</ele>
        <time>2019-06-01T12:58:14Z</time>
      </trkpt>
      <trkpt lat="46.85014" lon="6.33226">
        <ele>853.79</ele>
        <time>2019-06-01T12:58:26Z</time>
      </trkpt>
      <trkpt lat="46.85049" lon="6.3325">
        <ele>855.71</ele>
        <time>2019-06-01T12:58:36Z</time>
      </trkpt>
      <trkpt lat="46.85063" lon="6.33265">
        <ele>856.19</ele>
        <time>2019-06-01T12:58:40Z</time>
      </trkpt>
      <trkpt lat="46.85069" lon="6.33274">
        <ele>856.19</ele>
        <time>2019-06-01T12:58:42Z</time>
      </trkpt>
      <trkpt lat="46.85089" lon="6.33278">
        <ele>858.11</ele>
        <time>2019-06-01T12:58:50Z</time>
      </trkpt>
      <trkpt lat="46.8506" lon="6.3323">
        <ele>861.48</ele>
        <time>2019-06-01T12:59:02Z</time>
      </trkpt>
      <trkpt lat="46.85033" lon="6.33193">
        <ele>864.36</ele>
        <time>2019-06-01T12:59:12Z</time>
      </trkpt>
      <trkpt lat="46.85026" lon="6.33143">
        <ele>866.77</ele>
        <time>2019-06-01T12:59:23Z</time>
      </trkpt>
      <trkpt lat="46.8503" lon="6.3312">
        <ele>867.73</ele>
        <time>2019-06-01T12:59:28Z</time>
      </trkpt>
      <trkpt lat="46.85033" lon="6.33081">
        <ele>870.13</ele>
        <time>2019-06-01T12:59:37Z</time>
      </trkpt>
      <trkpt lat="46.85039" lon="6.33053">
        <ele>870.13</ele>
        <time>2019-06-01T12:59:45Z</time>
      </trkpt>
      <trkpt lat="46.85045" lon="6.3304">
        <ele>869.17</ele>
        <time>2019-06-01T12:59:51Z</time>
      </trkpt>
      <trkpt lat="46.85057" lon="6.33008">
        <ele>867.73</ele>
        <time>2019-06-01T13:00:07Z</time>
      </trkpt>
      <trkpt lat="46.85067" lon="6.3299">
        <ele>866.77</ele>
        <time>2019-06-01T13:00:19Z</time>
      </trkpt>
      <trkpt lat="46.85061" lon="6.32993">
        <ele>867.25</ele>
        <time>2019-06-01T13:00:25Z</time>
      </trkpt>
      <trkpt lat="46.85056" lon="6.33003">
        <ele>867.73</ele>
        <time>2019-06-01T13:00:31Z</time>
      </trkpt>
      <trkpt lat="46.85061" lon="6.33002">
        <ele>867.73</ele>
        <time>2019-06-01T13:00:36Z</time>
      </trkpt>
      <trkpt lat="46.85076" lon="6.32985">
        <ele>866.77</ele>
        <time>2019-06-01T13:00:41Z</time>
      </trkpt>
      <trkpt lat="46.85094" lon="6.3298">
        <ele>865.8</ele>
        <time>2019-06-01T13:00:45Z</time>
      </trkpt>
      <trkpt lat="46.85115" lon="6.3299">
        <ele>865.32</ele>
        <time>2019-06-01T13:00:51Z</time>
      </trkpt>
      <trkpt lat="46.85128" lon="6.32993">
        <ele>864.84</ele>
        <time>2019-06-01T13:00:54Z</time>
      </trkpt>
      <trkpt lat="46.85177" lon="6.33011">
        <ele>862.44</ele>
        <time>2019-06-01T13:01:06Z</time>
      </trkpt>
      <trkpt lat="46.85204" lon="6.33033">
        <ele>860.04</ele>
        <time>2019-06-01T13:01:12Z</time>
      </trkpt>
      <trkpt lat="46.85224" lon="6.3305">
        <ele>858.11</ele>
        <time>2019-06-01T13:01:17Z</time>
      </trkpt>
      <trkpt lat="46.85256" lon="6.33072">
        <ele>857.15</ele>
        <time>2019-06-01T13:01:24Z</time>
      </trkpt>
      <trkpt lat="46.85305" lon="6.33148">
        <ele>857.63</ele>
        <time>2019-06-01T13:01:37Z</time>
      </trkpt>
      <trkpt lat="46.85337" lon="6.33225">
        <ele>858.59</ele>
        <time>2019-06-01T13:01:49Z</time>
      </trkpt>
      <trkpt lat="46.8535" lon="6.33255">
        <ele>859.56</ele>
        <time>2019-06-01T13:01:54Z</time>
      </trkpt>
      <trkpt lat="46.85355" lon="6.33267">
        <ele>859.56</ele>
        <time>2019-06-01T13:01:56Z</time>
      </trkpt>
      <trkpt lat="46.85372" lon="6.33296">
        <ele>861.48</ele>
        <time>2019-06-01T13:02:02Z</time>
      </trkpt>
      <trkpt lat="46.85388" lon="6.33317">
        <ele>862.44</ele>
        <time>2019-06-01T13:02:07Z</time>
      </trkpt>
      <trkpt lat="46.85432" lon="6.3333">
        <ele>864.36</ele>
        <time>2019-06-01T13:02:20Z</time>
      </trkpt>
      <trkpt lat="46.85424" lon="6.3332">
        <ele>864.84</ele>
        <time>2019-06-01T13:02:29Z</time>
      </trkpt>
      <trkpt lat="46.85424" lon="6.33328">
        <ele>864.36</ele>
        <time>2019-06-01T13:02:37Z</time>
      </trkpt>
      <trkpt lat="46.8543" lon="6.33333">
        <ele>864.36</ele>
        <time>2019-06-01T13:02:40Z</time>
      </trkpt>
      <trkpt lat="46.85451" lon="6.33362">
        <ele>863.4</ele>
        <time>2019-06-01T13:02:48Z</time>
      </trkpt>
      <trkpt lat="46.85456" lon="6.33374">
        <ele>862.92</ele>
        <time>2019-06-01T13:02:50Z</time>
      </trkpt>
      <trkpt lat="46.85494" lon="6.33448">
        <ele>859.56</ele>
        <time>2019-06-01T13:03:00Z</time>
      </trkpt>
      <trkpt lat="46.85546" lon="6.33531">
        <ele>857.15</ele>
        <time>2019-06-01T13:03:11Z</time>
      </trkpt>
      <trkpt lat="46.85577" lon="6.33562">
        <ele>856.19</ele>
        <time>2019-06-01T13:03:16Z</time>
      </trkpt>
      <trkpt lat="46.85583" lon="6.33608">
        <ele>854.27</ele>
        <time>2019-06-01T13:03:21Z</time>
      </trkpt>
      <trkpt lat="46.85577" lon="6.33627">
        <ele>853.31</ele>
        <time>2019-06-01T13:03:24Z</time>
      </trkpt>
      <trkpt lat="46.85573" lon="6.33638">
        <ele>853.79</ele>
        <time>2019-06-01T13:03:26Z</time>
      </trkpt>
      <trkpt lat="46.85553" lon="6.3372">
        <ele>851.38</ele>
        <time>2019-06-01T13:03:36Z</time>
      </trkpt>
      <trkpt lat="46.8552" lon="6.33855">
        <ele>850.9</ele>
        <time>2019-06-01T13:03:51Z</time>
      </trkpt>
      <trkpt lat="46.85485" lon="6.33978">
        <ele>852.83</ele>
        <time>2019-06-01T13:04:08Z</time>
      </trkpt>
      <trkpt lat="46.85481" lon="6.33991">
        <ele>853.31</ele>
        <time>2019-06-01T13:04:10Z</time>
      </trkpt>
      <trkpt lat="46.85445" lon="6.34065">
        <ele>854.27</ele>
        <time>2019-06-01T13:04:22Z</time>
      </trkpt>
      <trkpt lat="46.85436" lon="6.34084">
        <ele>854.27</ele>
        <time>2019-06-01T13:04:25Z</time>
      </trkpt>
      <trkpt lat="46.85419" lon="6.34116">
        <ele>854.27</ele>
        <time>2019-06-01T13:04:30Z</time>
      </trkpt>
      <trkpt lat="46.85412" lon="6.34128">
        <ele>853.79</ele>
        <time>2019-06-01T13:04:32Z</time>
      </trkpt>
      <trkpt lat="46.85355" lon="6.34241">
        <ele>853.79</ele>
        <time>2019-06-01T13:04:50Z</time>
      </trkpt>
      <trkpt lat="46.85287" lon="6.3437">
        <ele>853.79</ele>
        <time>2019-06-01T13:05:11Z</time>
      </trkpt>
      <trkpt lat="46.85278" lon="6.34387">
        <ele>853.79</ele>
        <time>2019-06-01T13:05:14Z</time>
      </trkpt>
      <trkpt lat="46.85272" lon="6.34409">
        <ele>853.79</ele>
        <time>2019-06-01T13:05:22Z</time>
      </trkpt>
      <trkpt lat="46.85279" lon="6.34398">
        <ele>853.79</ele>
        <time>2019-06-01T13:05:29Z</time>
      </trkpt>
      <trkpt lat="46.8528" lon="6.34392">
        <ele>853.31</ele>
        <time>2019-06-01T13:05:31Z</time>
      </trkpt>
      <trkpt lat="46.85274" lon="6.34391">
        <ele>853.79</ele>
        <time>2019-06-01T13:05:39Z</time>
      </trkpt>
      <trkpt lat="46.85274" lon="6.34391">
        <ele>853.31</ele>
        <time>2019-06-01T13:06:10Z</time>
      </trkpt>
      <trkpt lat="46.85274" lon="6.34391">
        <ele>853.79</ele>
        <time>2019-06-01T13:06:38Z</time>
      </trkpt>
      <trkpt lat="46.85275" lon="6.34392">
        <ele>853.79</ele>
        <time>2019-06-01T13:07:04Z</time>
      </trkpt>
      <trkpt lat="46.85275" lon="6.34392">
        <ele>853.79</ele>
        <time>2019-06-01T13:07:36Z</time>
      </trkpt>
      <trkpt lat="46.85275" lon="6.34392">
        <ele>853.79</ele>
        <time>2019-06-01T13:07:59Z</time>
      </trkpt>
      <trkpt lat="46.85275" lon="6.34392">
        <ele>853.79</ele>
        <time>2019-06-01T13:08:24Z</time>
      </trkpt>
      <trkpt lat="46.85275" lon="6.34392">
        <ele>853.79</ele>
        <time>2019-06-01T13:08:54Z</time>
      </trkpt>
      <trkpt lat="46.85275" lon="6.34391">
        <ele>853.31</ele>
        <time>2019-06-01T13:09:27Z</time>
      </trkpt>
      <trkpt lat="46.85275" lon="6.3439">
        <ele>853.31</ele>
        <time>2019-06-01T13:09:51Z</time>
      </trkpt>
      <trkpt lat="46.85275" lon="6.34391">
        <ele>853.79</ele>
        <time>2019-06-01T13:10:17Z</time>
      </trkpt>
      <trkpt lat="46.85275" lon="6.34391">
        <ele>853.79</ele>
        <time>2019-06-01T13:10:36Z</time>
      </trkpt>
      <trkpt lat="46.85275" lon="6.34391">
        <ele>853.79</ele>
        <time>2019-06-01T13:11:07Z</time>
      </trkpt>
      <trkpt lat="46.85269" lon="6.34399">
        <ele>853.79</ele>
        <time>2019-06-01T13:11:12Z</time>
      </trkpt>
      <trkpt lat="46.85231" lon="6.34407">
        <ele>854.27</ele>
        <time>2019-06-01T13:11:26Z</time>
      </trkpt>
      <trkpt lat="46.85185" lon="6.34394">
        <ele>855.23</ele>
        <time>2019-06-01T13:11:40Z</time>
      </trkpt>
      <trkpt lat="46.85135" lon="6.34366">
        <ele>858.11</ele>
        <time>2019-06-01T13:11:55Z</time>
      </trkpt>
      <trkpt lat="46.85085" lon="6.34331">
        <ele>861.48</ele>
        <time>2019-06-01T13:12:10Z</time>
      </trkpt>
      <trkpt lat="46.85049" lon="6.3432">
        <ele>863.4</ele>
        <time>2019-06-01T13:12:20Z</time>
      </trkpt>
      <trkpt lat="46.85042" lon="6.34317">
        <ele>863.88</ele>
        <time>2019-06-01T13:12:22Z</time>
      </trkpt>
      <trkpt lat="46.8503" lon="6.34315">
        <ele>865.32</ele>
        <time>2019-06-01T13:12:26Z</time>
      </trkpt>
      <trkpt lat="46.85007" lon="6.34314">
        <ele>867.25</ele>
        <time>2019-06-01T13:12:34Z</time>
      </trkpt>
      <trkpt lat="46.84975" lon="6.34312">
        <ele>869.17</ele>
        <time>2019-06-01T13:12:42Z</time>
      </trkpt>
      <trkpt lat="46.84948" lon="6.34315">
        <ele>871.57</ele>
        <time>2019-06-01T13:12:49Z</time>
      </trkpt>
      <trkpt lat="46.84884" lon="6.3433">
        <ele>874.46</ele>
        <time>2019-06-01T13:13:04Z</time>
      </trkpt>
      <trkpt lat="46.84846" lon="6.34343">
        <ele>877.34</ele>
        <time>2019-06-01T13:13:15Z</time>
      </trkpt>
      <trkpt lat="46.84826" lon="6.34336">
        <ele>879.26</ele>
        <time>2019-06-01T13:13:21Z</time>
      </trkpt>
      <trkpt lat="46.84804" lon="6.34329">
        <ele>881.67</ele>
        <time>2019-06-01T13:13:28Z</time>
      </trkpt>
      <trkpt lat="46.84782" lon="6.34324">
        <ele>885.03</ele>
        <time>2019-06-01T13:13:39Z</time>
      </trkpt>
      <trkpt lat="46.84765" lon="6.34319">
        <ele>886.47</ele>
        <time>2019-06-01T13:13:44Z</time>
      </trkpt>
      <trkpt lat="46.84744" lon="6.34311">
        <ele>888.88</ele>
        <time>2019-06-01T13:13:53Z</time>
      </trkpt>
      <trkpt lat="46.84737" lon="6.34309">
        <ele>889.84</ele>
        <time>2019-06-01T13:13:56Z</time>
      </trkpt>
      <trkpt lat="46.84725" lon="6.34313">
        <ele>891.28</ele>
        <time>2019-06-01T13:14:02Z</time>
      </trkpt>
      <trkpt lat="46.84682" lon="6.34327">
        <ele>893.68</ele>
        <time>2019-06-01T13:14:16Z</time>
      </trkpt>
      <trkpt lat="46.84663" lon="6.34369">
        <ele>894.16</ele>
        <time>2019-06-01T13:14:25Z</time>
      </trkpt>
      <trkpt lat="46.84645" lon="6.34413">
        <ele>896.09</ele>
        <time>2019-06-01T13:14:35Z</time>
      </trkpt>
      <trkpt lat="46.84619" lon="6.34439">
        <ele>898.01</ele>
        <time>2019-06-01T13:14:44Z</time>
      </trkpt>
      <trkpt lat="46.84595" lon="6.3447">
        <ele>900.89</ele>
        <time>2019-06-01T13:14:53Z</time>
      </trkpt>
      <trkpt lat="46.8457" lon="6.34501">
        <ele>902.82</ele>
        <time>2019-06-01T13:15:01Z</time>
      </trkpt>
      <trkpt lat="46.84568" lon="6.34526">
        <ele>904.26</ele>
        <time>2019-06-01T13:15:05Z</time>
      </trkpt>
      <trkpt lat="46.8458" lon="6.34587">
        <ele>906.66</ele>
        <time>2019-06-01T13:15:16Z</time>
      </trkpt>
      <trkpt lat="46.84582" lon="6.34598">
        <ele>907.62</ele>
        <time>2019-06-01T13:15:19Z</time>
      </trkpt>
      <trkpt lat="46.84581" lon="6.34603">
        <ele>907.62</ele>
        <time>2019-06-01T13:15:20Z</time>
      </trkpt>
      <trkpt lat="46.84586" lon="6.34617">
        <ele>908.1</ele>
        <time>2019-06-01T13:15:23Z</time>
      </trkpt>
      <trkpt lat="46.84597" lon="6.34674">
        <ele>910.03</ele>
        <time>2019-06-01T13:15:33Z</time>
      </trkpt>
      <trkpt lat="46.84594" lon="6.3474">
        <ele>913.39</ele>
        <time>2019-06-01T13:15:45Z</time>
      </trkpt>
      <trkpt lat="46.84588" lon="6.34797">
        <ele>915.79</ele>
        <time>2019-06-01T13:15:56Z</time>
      </trkpt>
      <trkpt lat="46.84573" lon="6.3484">
        <ele>918.68</ele>
        <time>2019-06-01T13:16:06Z</time>
      </trkpt>
      <trkpt lat="46.84534" lon="6.34859">
        <ele>921.56</ele>
        <time>2019-06-01T13:16:17Z</time>
      </trkpt>
      <trkpt lat="46.84519" lon="6.34878">
        <ele>922.04</ele>
        <time>2019-06-01T13:16:22Z</time>
      </trkpt>
      <trkpt lat="46.84499" lon="6.34908">
        <ele>922.52</ele>
        <time>2019-06-01T13:16:29Z</time>
      </trkpt>
      <trkpt lat="46.8443" lon="6.34942">
        <ele>923.96</ele>
        <time>2019-06-01T13:16:48Z</time>
      </trkpt>
      <trkpt lat="46.84418" lon="6.34951">
        <ele>923.96</ele>
        <time>2019-06-01T13:16:54Z</time>
      </trkpt>
      <trkpt lat="46.84427" lon="6.34946">
        <ele>923.96</ele>
        <time>2019-06-01T13:17:02Z</time>
      </trkpt>
      <trkpt lat="46.84463" lon="6.34932">
        <ele>923.48</ele>
        <time>2019-06-01T13:17:15Z</time>
      </trkpt>
      <trkpt lat="46.84495" lon="6.34914">
        <ele>923</ele>
        <time>2019-06-01T13:17:28Z</time>
      </trkpt>
      <trkpt lat="46.84523" lon="6.34873">
        <ele>922.52</ele>
        <time>2019-06-01T13:17:40Z</time>
      </trkpt>
      <trkpt lat="46.84553" lon="6.34854">
        <ele>921.56</ele>
        <time>2019-06-01T13:17:53Z</time>
      </trkpt>
      <trkpt lat="46.8458" lon="6.3484">
        <ele>919.64</ele>
        <time>2019-06-01T13:18:05Z</time>
      </trkpt>
      <trkpt lat="46.84589" lon="6.34835">
        <ele>918.68</ele>
        <time>2019-06-01T13:18:10Z</time>
      </trkpt>
      <trkpt lat="46.84579" lon="6.34832">
        <ele>918.68</ele>
        <time>2019-06-01T13:18:18Z</time>
      </trkpt>
      <trkpt lat="46.84576" lon="6.34838">
        <ele>919.16</ele>
        <time>2019-06-01T13:18:20Z</time>
      </trkpt>
      <trkpt lat="46.84541" lon="6.34854">
        <ele>921.56</ele>
        <time>2019-06-01T13:18:32Z</time>
      </trkpt>
      <trkpt lat="46.84512" lon="6.34889">
        <ele>923</ele>
        <time>2019-06-01T13:18:43Z</time>
      </trkpt>
      <trkpt lat="46.8447" lon="6.34927">
        <ele>923.48</ele>
        <time>2019-06-01T13:18:58Z</time>
      </trkpt>
      <trkpt lat="46.84417" lon="6.34954">
        <ele>924.45</ele>
        <time>2019-06-01T13:19:16Z</time>
      </trkpt>
      <trkpt lat="46.84415" lon="6.34956">
        <ele>924.45</ele>
        <time>2019-06-01T13:19:17Z</time>
      </trkpt>
      <trkpt lat="46.84421" lon="6.34955">
        <ele>924.45</ele>
        <time>2019-06-01T13:19:24Z</time>
      </trkpt>
      <trkpt lat="46.84443" lon="6.34944">
        <ele>923.96</ele>
        <time>2019-06-01T13:19:36Z</time>
      </trkpt>
      <trkpt lat="46.84441" lon="6.34939">
        <ele>923.48</ele>
        <time>2019-06-01T13:19:40Z</time>
      </trkpt>
      <trkpt lat="46.8443" lon="6.34943">
        <ele>923.96</ele>
        <time>2019-06-01T13:19:46Z</time>
      </trkpt>
      <trkpt lat="46.84435" lon="6.34941">
        <ele>923.96</ele>
        <time>2019-06-01T13:19:56Z</time>
      </trkpt>
      <trkpt lat="46.8443" lon="6.34943">
        <ele>923.96</ele>
        <time>2019-06-01T13:20:00Z</time>
      </trkpt>
      <trkpt lat="46.84427" lon="6.34943">
        <ele>923.96</ele>
        <time>2019-06-01T13:20:15Z</time>
      </trkpt>
      <trkpt lat="46.84427" lon="6.34943">
        <ele>924.45</ele>
        <time>2019-06-01T13:20:23Z</time>
      </trkpt>
      <trkpt lat="46.84425" lon="6.34944">
        <ele>924.45</ele>
        <time>2019-06-01T13:20:26Z</time>
      </trkpt>
      <trkpt lat="46.84416" lon="6.34943">
        <ele>924.93</ele>
        <time>2019-06-01T13:20:31Z</time>
      </trkpt>
      <trkpt lat="46.84367" lon="6.3494">
        <ele>925.41</ele>
        <time>2019-06-01T13:20:44Z</time>
      </trkpt>
      <trkpt lat="46.84331" lon="6.34955">
        <ele>927.81</ele>
        <time>2019-06-01T13:20:55Z</time>
      </trkpt>
      <trkpt lat="46.84294" lon="6.34959">
        <ele>928.29</ele>
        <time>2019-06-01T13:21:06Z</time>
      </trkpt>
      <trkpt lat="46.84272" lon="6.34946">
        <ele>927.81</ele>
        <time>2019-06-01T13:21:19Z</time>
      </trkpt>
      <trkpt lat="46.8427" lon="6.34945">
        <ele>927.81</ele>
        <time>2019-06-01T13:21:29Z</time>
      </trkpt>
      <trkpt lat="46.84265" lon="6.34945">
        <ele>927.33</ele>
        <time>2019-06-01T13:21:34Z</time>
      </trkpt>
      <trkpt lat="46.84256" lon="6.34941">
        <ele>927.33</ele>
        <time>2019-06-01T13:21:38Z</time>
      </trkpt>
      <trkpt lat="46.84254" lon="6.34943">
        <ele>927.33</ele>
        <time>2019-06-01T13:21:45Z</time>
      </trkpt>
      <trkpt lat="46.84257" lon="6.34944">
        <ele>927.33</ele>
        <time>2019-06-01T13:21:48Z</time>
      </trkpt>
      <trkpt lat="46.8427" lon="6.34948">
        <ele>927.81</ele>
        <time>2019-06-01T13:21:59Z</time>
      </trkpt>
      <trkpt lat="46.84268" lon="6.34948">
        <ele>927.81</ele>
        <time>2019-06-01T13:22:09Z</time>
      </trkpt>
      <trkpt lat="46.84259" lon="6.34945">
        <ele>927.33</ele>
        <time>2019-06-01T13:22:14Z</time>
      </trkpt>
      <trkpt lat="46.84214" lon="6.34924">
        <ele>927.33</ele>
        <time>2019-06-01T13:22:29Z</time>
      </trkpt>
      <trkpt lat="46.84169" lon="6.34905">
        <ele>927.81</ele>
        <time>2019-06-01T13:22:42Z</time>
      </trkpt>
      <trkpt lat="46.84144" lon="6.34893">
        <ele>928.29</ele>
        <time>2019-06-01T13:22:49Z</time>
      </trkpt>
      <trkpt lat="46.84101" lon="6.34869">
        <ele>931.17</ele>
        <time>2019-06-01T13:23:03Z</time>
      </trkpt>
      <trkpt lat="46.84075" lon="6.34847">
        <ele>932.62</ele>
        <time>2019-06-01T13:23:14Z</time>
      </trkpt>
      <trkpt lat="46.84026" lon="6.34812">
        <ele>931.17</ele>
        <time>2019-06-01T13:23:28Z</time>
      </trkpt>
      <trkpt lat="46.84008" lon="6.34802">
        <ele>931.17</ele>
        <time>2019-06-01T13:23:32Z</time>
      </trkpt>
      <trkpt lat="46.83965" lon="6.34774">
        <ele>931.17</ele>
        <time>2019-06-01T13:23:45Z</time>
      </trkpt>
      <trkpt lat="46.83943" lon="6.34756">
        <ele>929.73</ele>
        <time>2019-06-01T13:23:57Z</time>
      </trkpt>
      <trkpt lat="46.83943" lon="6.34756">
        <ele>930.21</ele>
        <time>2019-06-01T13:24:27Z</time>
      </trkpt>
      <trkpt lat="46.83943" lon="6.34756">
        <ele>930.21</ele>
        <time>2019-06-01T13:24:29Z</time>
      </trkpt>
      <trkpt lat="46.83936" lon="6.34749">
        <ele>929.73</ele>
        <time>2019-06-01T13:24:34Z</time>
      </trkpt>
      <trkpt lat="46.83894" lon="6.34709">
        <ele>927.81</ele>
        <time>2019-06-01T13:24:49Z</time>
      </trkpt>
      <trkpt lat="46.83865" lon="6.34676">
        <ele>924.45</ele>
        <time>2019-06-01T13:25:00Z</time>
      </trkpt>
      <trkpt lat="46.83843" lon="6.3464">
        <ele>921.56</ele>
        <time>2019-06-01T13:25:13Z</time>
      </trkpt>
      <trkpt lat="46.83838" lon="6.34631">
        <ele>920.6</ele>
        <time>2019-06-01T13:25:23Z</time>
      </trkpt>
      <trkpt lat="46.83838" lon="6.34631">
        <ele>920.6</ele>
        <time>2019-06-01T13:25:45Z</time>
      </trkpt>
      <trkpt lat="46.83838" lon="6.34631">
        <ele>920.6</ele>
        <time>2019-06-01T13:26:11Z</time>
      </trkpt>
      <trkpt lat="46.83838" lon="6.34631">
        <ele>920.6</ele>
        <time>2019-06-01T13:26:17Z</time>
      </trkpt>
      <trkpt lat="46.83831" lon="6.34623">
        <ele>920.12</ele>
        <time>2019-06-01T13:26:21Z</time>
      </trkpt>
      <trkpt lat="46.83822" lon="6.34613">
        <ele>919.16</ele>
        <time>2019-06-01T13:26:24Z</time>
      </trkpt>
      <trkpt lat="46.83789" lon="6.34631">
        <ele>915.31</ele>
        <time>2019-06-01T13:26:34Z</time>
      </trkpt>
      <trkpt lat="46.83766" lon="6.34656">
        <ele>912.43</ele>
        <time>2019-06-01T13:26:39Z</time>
      </trkpt>
      <trkpt lat="46.83757" lon="6.34668">
        <ele>911.47</ele>
        <time>2019-06-01T13:26:41Z</time>
      </trkpt>
      <trkpt lat="46.8372" lon="6.34682">
        <ele>907.14</ele>
        <time>2019-06-01T13:26:47Z</time>
      </trkpt>
      <trkpt lat="46.83714" lon="6.34681">
        <ele>906.18</ele>
        <time>2019-06-01T13:26:48Z</time>
      </trkpt>
      <trkpt lat="46.83703" lon="6.34678">
        <ele>904.74</ele>
        <time>2019-06-01T13:26:50Z</time>
      </trkpt>
      <trkpt lat="46.83692" lon="6.34678">
        <ele>902.33</ele>
        <time>2019-06-01T13:26:53Z</time>
      </trkpt>
      <trkpt lat="46.83664" lon="6.3467">
        <ele>899.45</ele>
        <time>2019-06-01T13:27:00Z</time>
      </trkpt>
      <trkpt lat="46.83661" lon="6.34673">
        <ele>899.45</ele>
        <time>2019-06-01T13:27:01Z</time>
      </trkpt>
      <trkpt lat="46.83647" lon="6.34709">
        <ele>897.53</ele>
        <time>2019-06-01T13:27:07Z</time>
      </trkpt>
      <trkpt lat="46.83624" lon="6.34706">
        <ele>895.12</ele>
        <time>2019-06-01T13:27:13Z</time>
      </trkpt>
      <trkpt lat="46.83623" lon="6.34677">
        <ele>893.2</ele>
        <time>2019-06-01T13:27:16Z</time>
      </trkpt>
      <trkpt lat="46.83626" lon="6.34573">
        <ele>888.4</ele>
        <time>2019-06-01T13:27:25Z</time>
      </trkpt>
      <trkpt lat="46.83626" lon="6.34562">
        <ele>887.91</ele>
        <time>2019-06-01T13:27:26Z</time>
      </trkpt>
      <trkpt lat="46.83624" lon="6.34545">
        <ele>886.95</ele>
        <time>2019-06-01T13:27:28Z</time>
      </trkpt>
      <trkpt lat="46.83623" lon="6.34531">
        <ele>886.47</ele>
        <time>2019-06-01T13:27:32Z</time>
      </trkpt>
      <trkpt lat="46.83614" lon="6.34501">
        <ele>885.51</ele>
        <time>2019-06-01T13:27:40Z</time>
      </trkpt>
      <trkpt lat="46.83618" lon="6.34478">
        <ele>884.55</ele>
        <time>2019-06-01T13:27:44Z</time>
      </trkpt>
      <trkpt lat="46.83618" lon="6.34454">
        <ele>883.59</ele>
        <time>2019-06-01T13:27:47Z</time>
      </trkpt>
      <trkpt lat="46.83611" lon="6.3439">
        <ele>879.74</ele>
        <time>2019-06-01T13:27:53Z</time>
      </trkpt>
      <trkpt lat="46.8362" lon="6.3432">
        <ele>876.86</ele>
        <time>2019-06-01T13:27:59Z</time>
      </trkpt>
      <trkpt lat="46.83658" lon="6.34257">
        <ele>873.5</ele>
        <time>2019-06-01T13:28:06Z</time>
      </trkpt>
      <trkpt lat="46.8368" lon="6.34219">
        <ele>870.61</ele>
        <time>2019-06-01T13:28:10Z</time>
      </trkpt>
      <trkpt lat="46.83701" lon="6.34171">
        <ele>867.25</ele>
        <time>2019-06-01T13:28:15Z</time>
      </trkpt>
      <trkpt lat="46.83693" lon="6.34104">
        <ele>862.92</ele>
        <time>2019-06-01T13:28:21Z</time>
      </trkpt>
      <trkpt lat="46.83689" lon="6.34092">
        <ele>862.44</ele>
        <time>2019-06-01T13:28:22Z</time>
      </trkpt>
      <trkpt lat="46.83682" lon="6.3407">
        <ele>861</ele>
        <time>2019-06-01T13:28:24Z</time>
      </trkpt>
      <trkpt lat="46.83663" lon="6.34039">
        <ele>859.08</ele>
        <time>2019-06-01T13:28:28Z</time>
      </trkpt>
      <trkpt lat="46.83651" lon="6.34032">
        <ele>857.63</ele>
        <time>2019-06-01T13:28:30Z</time>
      </trkpt>
      <trkpt lat="46.83638" lon="6.34028">
        <ele>857.63</ele>
        <time>2019-06-01T13:28:32Z</time>
      </trkpt>
      <trkpt lat="46.83604" lon="6.34048">
        <ele>859.08</ele>
        <time>2019-06-01T13:28:39Z</time>
      </trkpt>
      <trkpt lat="46.83603" lon="6.34056">
        <ele>859.08</ele>
        <time>2019-06-01T13:28:40Z</time>
      </trkpt>
      <trkpt lat="46.83601" lon="6.3408">
        <ele>859.56</ele>
        <time>2019-06-01T13:28:43Z</time>
      </trkpt>
      <trkpt lat="46.83576" lon="6.34113">
        <ele>861</ele>
        <time>2019-06-01T13:28:51Z</time>
      </trkpt>
      <trkpt lat="46.83564" lon="6.341">
        <ele>861.48</ele>
        <time>2019-06-01T13:28:54Z</time>
      </trkpt>
      <trkpt lat="46.83553" lon="6.34075">
        <ele>860.52</ele>
        <time>2019-06-01T13:28:58Z</time>
      </trkpt>
      <trkpt lat="46.83533" lon="6.34038">
        <ele>860.04</ele>
        <time>2019-06-01T13:29:04Z</time>
      </trkpt>
      <trkpt lat="46.83514" lon="6.34018">
        <ele>859.08</ele>
        <time>2019-06-01T13:29:08Z</time>
      </trkpt>
      <trkpt lat="46.83502" lon="6.34013">
        <ele>858.59</ele>
        <time>2019-06-01T13:29:10Z</time>
      </trkpt>
      <trkpt lat="46.83484" lon="6.3401">
        <ele>857.63</ele>
        <time>2019-06-01T13:29:13Z</time>
      </trkpt>
      <trkpt lat="46.83462" lon="6.34006">
        <ele>857.15</ele>
        <time>2019-06-01T13:29:17Z</time>
      </trkpt>
      <trkpt lat="46.83452" lon="6.33994">
        <ele>856.67</ele>
        <time>2019-06-01T13:29:25Z</time>
      </trkpt>
      <trkpt lat="46.83452" lon="6.33994">
        <ele>856.67</ele>
        <time>2019-06-01T13:29:50Z</time>
      </trkpt>
      <trkpt lat="46.83452" lon="6.33995">
        <ele>857.15</ele>
        <time>2019-06-01T13:30:22Z</time>
      </trkpt>
      <trkpt lat="46.83451" lon="6.33995">
        <ele>857.15</ele>
        <time>2019-06-01T13:30:56Z</time>
      </trkpt>
      <trkpt lat="46.83451" lon="6.33995">
        <ele>856.67</ele>
        <time>2019-06-01T13:30:58Z</time>
      </trkpt>
      <trkpt lat="46.83449" lon="6.33996">
        <ele>857.15</ele>
        <time>2019-06-01T13:31:00Z</time>
      </trkpt>
      <trkpt lat="46.83443" lon="6.34005">
        <ele>857.15</ele>
        <time>2019-06-01T13:31:05Z</time>
      </trkpt>
      <trkpt lat="46.83405" lon="6.34003">
        <ele>856.67</ele>
        <time>2019-06-01T13:31:19Z</time>
      </trkpt>
      <trkpt lat="46.83368" lon="6.3399">
        <ele>856.19</ele>
        <time>2019-06-01T13:31:30Z</time>
      </trkpt>
      <trkpt lat="46.83352" lon="6.33978">
        <ele>856.19</ele>
        <time>2019-06-01T13:31:34Z</time>
      </trkpt>
      <trkpt lat="46.83328" lon="6.33972">
        <ele>855.71</ele>
        <time>2019-06-01T13:31:39Z</time>
      </trkpt>
      <trkpt lat="46.83281" lon="6.33983">
        <ele>854.75</ele>
        <time>2019-06-01T13:31:48Z</time>
      </trkpt>
      <trkpt lat="46.83256" lon="6.33982">
        <ele>854.75</ele>
        <time>2019-06-01T13:31:53Z</time>
      </trkpt>
      <trkpt lat="46.83246" lon="6.3398">
        <ele>854.75</ele>
        <time>2019-06-01T13:31:55Z</time>
      </trkpt>
      <trkpt lat="46.83235" lon="6.33975">
        <ele>854.75</ele>
        <time>2019-06-01T13:31:58Z</time>
      </trkpt>
      <trkpt lat="46.8324" lon="6.33972">
        <ele>854.27</ele>
        <time>2019-06-01T13:32:03Z</time>
      </trkpt>
      <trkpt lat="46.83243" lon="6.3397">
        <ele>854.75</ele>
        <time>2019-06-01T13:32:16Z</time>
      </trkpt>
      <trkpt lat="46.83244" lon="6.33971">
        <ele>853.79</ele>
        <time>2019-06-01T13:32:37Z</time>
      </trkpt>
      <trkpt lat="46.83243" lon="6.33971">
        <ele>853.79</ele>
        <time>2019-06-01T13:33:07Z</time>
      </trkpt>
      <trkpt lat="46.83243" lon="6.33971">
        <ele>853.79</ele>
        <time>2019-06-01T13:33:41Z</time>
      </trkpt>
      <trkpt lat="46.83243" lon="6.33971">
        <ele>854.75</ele>
        <time>2019-06-01T13:34:03Z</time>
      </trkpt>
      <trkpt lat="46.83243" lon="6.33971">
        <ele>854.75</ele>
        <time>2019-06-01T13:34:04Z</time>
      </trkpt>
      <trkpt lat="46.83238" lon="6.33972">
        <ele>854.75</ele>
        <time>2019-06-01T13:34:06Z</time>
      </trkpt>
      <trkpt lat="46.83222" lon="6.33967">
        <ele>854.75</ele>
        <time>2019-06-01T13:34:15Z</time>
      </trkpt>
      <trkpt lat="46.83198" lon="6.3394">
        <ele>854.75</ele>
        <time>2019-06-01T13:34:24Z</time>
      </trkpt>
      <trkpt lat="46.83171" lon="6.33897">
        <ele>855.23</ele>
        <time>2019-06-01T13:34:33Z</time>
      </trkpt>
      <trkpt lat="46.83152" lon="6.33872">
        <ele>855.23</ele>
        <time>2019-06-01T13:34:38Z</time>
      </trkpt>
      <trkpt lat="46.83141" lon="6.33859">
        <ele>855.23</ele>
        <time>2019-06-01T13:34:41Z</time>
      </trkpt>
      <trkpt lat="46.83127" lon="6.33841">
        <ele>854.75</ele>
        <time>2019-06-01T13:34:45Z</time>
      </trkpt>
      <trkpt lat="46.83071" lon="6.33792">
        <ele>857.63</ele>
        <time>2019-06-01T13:34:58Z</time>
      </trkpt>
      <trkpt lat="46.83067" lon="6.33788">
        <ele>858.11</ele>
        <time>2019-06-01T13:34:59Z</time>
      </trkpt>
      <trkpt lat="46.83052" lon="6.33776">
        <ele>860.04</ele>
        <time>2019-06-01T13:35:03Z</time>
      </trkpt>
      <trkpt lat="46.83044" lon="6.3377">
        <ele>860.52</ele>
        <time>2019-06-01T13:35:05Z</time>
      </trkpt>
      <trkpt lat="46.83037" lon="6.33763">
        <ele>861.96</ele>
        <time>2019-06-01T13:35:07Z</time>
      </trkpt>
      <trkpt lat="46.83019" lon="6.33744">
        <ele>864.84</ele>
        <time>2019-06-01T13:35:12Z</time>
      </trkpt>
      <trkpt lat="46.83016" lon="6.3374">
        <ele>865.32</ele>
        <time>2019-06-01T13:35:13Z</time>
      </trkpt>
      <trkpt lat="46.83006" lon="6.33729">
        <ele>866.77</ele>
        <time>2019-06-01T13:35:16Z</time>
      </trkpt>
      <trkpt lat="46.82986" lon="6.33715">
        <ele>868.69</ele>
        <time>2019-06-01T13:35:21Z</time>
      </trkpt>
      <trkpt lat="46.82975" lon="6.33706">
        <ele>870.13</ele>
        <time>2019-06-01T13:35:24Z</time>
      </trkpt>
      <trkpt lat="46.82963" lon="6.33697">
        <ele>871.57</ele>
        <time>2019-06-01T13:35:27Z</time>
      </trkpt>
      <trkpt lat="46.82943" lon="6.33682">
        <ele>873.5</ele>
        <time>2019-06-01T13:35:32Z</time>
      </trkpt>
      <trkpt lat="46.82925" lon="6.33666">
        <ele>876.38</ele>
        <time>2019-06-01T13:35:37Z</time>
      </trkpt>
      <trkpt lat="46.82908" lon="6.33654">
        <ele>878.3</ele>
        <time>2019-06-01T13:35:42Z</time>
      </trkpt>
      <trkpt lat="46.8289" lon="6.33628">
        <ele>880.71</ele>
        <time>2019-06-01T13:35:49Z</time>
      </trkpt>
      <trkpt lat="46.82872" lon="6.33609">
        <ele>882.15</ele>
        <time>2019-06-01T13:35:54Z</time>
      </trkpt>
      <trkpt lat="46.82859" lon="6.33583">
        <ele>883.11</ele>
        <time>2019-06-01T13:36:00Z</time>
      </trkpt>
      <trkpt lat="46.82841" lon="6.33556">
        <ele>883.59</ele>
        <time>2019-06-01T13:36:10Z</time>
      </trkpt>
      <trkpt lat="46.82841" lon="6.33564">
        <ele>883.59</ele>
        <time>2019-06-01T13:36:18Z</time>
      </trkpt>
      <trkpt lat="46.82856" lon="6.33595">
        <ele>882.63</ele>
        <time>2019-06-01T13:36:30Z</time>
      </trkpt>
      <trkpt lat="46.82873" lon="6.33627">
        <ele>881.19</ele>
        <time>2019-06-01T13:36:39Z</time>
      </trkpt>
      <trkpt lat="46.82878" lon="6.33624">
        <ele>881.19</ele>
        <time>2019-06-01T13:36:48Z</time>
      </trkpt>
      <trkpt lat="46.82876" lon="6.3363">
        <ele>881.19</ele>
        <time>2019-06-01T13:36:53Z</time>
      </trkpt>
      <trkpt lat="46.82875" lon="6.33622">
        <ele>881.19</ele>
        <time>2019-06-01T13:37:00Z</time>
      </trkpt>
      <trkpt lat="46.82876" lon="6.33627">
        <ele>881.19</ele>
        <time>2019-06-01T13:37:02Z</time>
      </trkpt>
      <trkpt lat="46.82879" lon="6.33623">
        <ele>881.19</ele>
        <time>2019-06-01T13:37:06Z</time>
      </trkpt>
      <trkpt lat="46.82861" lon="6.33594">
        <ele>882.63</ele>
        <time>2019-06-01T13:37:17Z</time>
      </trkpt>
      <trkpt lat="46.82838" lon="6.33556">
        <ele>883.59</ele>
        <time>2019-06-01T13:37:29Z</time>
      </trkpt>
      <trkpt lat="46.82824" lon="6.33541">
        <ele>883.11</ele>
        <time>2019-06-01T13:37:35Z</time>
      </trkpt>
      <trkpt lat="46.82785" lon="6.33509">
        <ele>880.22</ele>
        <time>2019-06-01T13:37:44Z</time>
      </trkpt>
      <trkpt lat="46.82766" lon="6.33489">
        <ele>880.71</ele>
        <time>2019-06-01T13:37:49Z</time>
      </trkpt>
      <trkpt lat="46.82758" lon="6.33432">
        <ele>883.11</ele>
        <time>2019-06-01T13:38:01Z</time>
      </trkpt>
      <trkpt lat="46.82757" lon="6.33413">
        <ele>885.03</ele>
        <time>2019-06-01T13:38:05Z</time>
      </trkpt>
      <trkpt lat="46.82742" lon="6.33364">
        <ele>887.43</ele>
        <time>2019-06-01T13:38:18Z</time>
      </trkpt>
      <trkpt lat="46.82725" lon="6.33331">
        <ele>889.84</ele>
        <time>2019-06-01T13:38:28Z</time>
      </trkpt>
      <trkpt lat="46.82724" lon="6.33329">
        <ele>889.84</ele>
        <time>2019-06-01T13:38:29Z</time>
      </trkpt>
      <trkpt lat="46.82712" lon="6.33315">
        <ele>889.84</ele>
        <time>2019-06-01T13:38:41Z</time>
      </trkpt>
      <trkpt lat="46.82709" lon="6.33314">
        <ele>889.84</ele>
        <time>2019-06-01T13:38:43Z</time>
      </trkpt>
      <trkpt lat="46.82697" lon="6.33303">
        <ele>889.36</ele>
        <time>2019-06-01T13:38:49Z</time>
      </trkpt>
      <trkpt lat="46.82668" lon="6.33273">
        <ele>888.4</ele>
        <time>2019-06-01T13:39:00Z</time>
      </trkpt>
      <trkpt lat="46.82638" lon="6.33241">
        <ele>888.4</ele>
        <time>2019-06-01T13:39:08Z</time>
      </trkpt>
      <trkpt lat="46.82613" lon="6.33232">
        <ele>888.4</ele>
        <time>2019-06-01T13:39:13Z</time>
      </trkpt>
      <trkpt lat="46.82576" lon="6.33237">
        <ele>890.32</ele>
        <time>2019-06-01T13:39:21Z</time>
      </trkpt>
      <trkpt lat="46.82567" lon="6.33239">
        <ele>890.8</ele>
        <time>2019-06-01T13:39:23Z</time>
      </trkpt>
      <trkpt lat="46.82554" lon="6.33243">
        <ele>892.24</ele>
        <time>2019-06-01T13:39:26Z</time>
      </trkpt>
      <trkpt lat="46.82544" lon="6.33245">
        <ele>894.16</ele>
        <time>2019-06-01T13:39:29Z</time>
      </trkpt>
      <trkpt lat="46.82506" lon="6.33235">
        <ele>895.61</ele>
        <time>2019-06-01T13:39:42Z</time>
      </trkpt>
      <trkpt lat="46.82447" lon="6.33218">
        <ele>895.12</ele>
        <time>2019-06-01T13:39:56Z</time>
      </trkpt>
      <trkpt lat="46.82409" lon="6.33211">
        <ele>896.09</ele>
        <time>2019-06-01T13:40:04Z</time>
      </trkpt>
      <trkpt lat="46.82389" lon="6.33209">
        <ele>897.53</ele>
        <time>2019-06-01T13:40:08Z</time>
      </trkpt>
      <trkpt lat="46.8237" lon="6.33204">
        <ele>898.49</ele>
        <time>2019-06-01T13:40:12Z</time>
      </trkpt>
      <trkpt lat="46.8231" lon="6.33178">
        <ele>900.41</ele>
        <time>2019-06-01T13:40:27Z</time>
      </trkpt>
      <trkpt lat="46.82272" lon="6.33151">
        <ele>899.93</ele>
        <time>2019-06-01T13:40:40Z</time>
      </trkpt>
      <trkpt lat="46.8224" lon="6.3312">
        <ele>898.97</ele>
        <time>2019-06-01T13:40:52Z</time>
      </trkpt>
      <trkpt lat="46.8218" lon="6.33055">
        <ele>896.57</ele>
        <time>2019-06-01T13:41:05Z</time>
      </trkpt>
      <trkpt lat="46.82164" lon="6.33037">
        <ele>896.09</ele>
        <time>2019-06-01T13:41:08Z</time>
      </trkpt>
      <trkpt lat="46.82119" lon="6.33006">
        <ele>896.57</ele>
        <time>2019-06-01T13:41:16Z</time>
      </trkpt>
      <trkpt lat="46.82098" lon="6.33">
        <ele>896.09</ele>
        <time>2019-06-01T13:41:20Z</time>
      </trkpt>
      <trkpt lat="46.82081" lon="6.33005">
        <ele>895.12</ele>
        <time>2019-06-01T13:41:23Z</time>
      </trkpt>
      <trkpt lat="46.82034" lon="6.33011">
        <ele>893.2</ele>
        <time>2019-06-01T13:41:30Z</time>
      </trkpt>
      <trkpt lat="46.81982" lon="6.32971">
        <ele>891.28</ele>
        <time>2019-06-01T13:41:38Z</time>
      </trkpt>
      <trkpt lat="46.8193" lon="6.32908">
        <ele>891.28</ele>
        <time>2019-06-01T13:41:51Z</time>
      </trkpt>
      <trkpt lat="46.81888" lon="6.32862">
        <ele>892.72</ele>
        <time>2019-06-01T13:42:06Z</time>
      </trkpt>
      <trkpt lat="46.81847" lon="6.32815">
        <ele>894.64</ele>
        <time>2019-06-01T13:42:20Z</time>
      </trkpt>
      <trkpt lat="46.81809" lon="6.32773">
        <ele>896.57</ele>
        <time>2019-06-01T13:42:33Z</time>
      </trkpt>
      <trkpt lat="46.81794" lon="6.32754">
        <ele>897.53</ele>
        <time>2019-06-01T13:42:38Z</time>
      </trkpt>
      <trkpt lat="46.81756" lon="6.32712">
        <ele>898.97</ele>
        <time>2019-06-01T13:42:50Z</time>
      </trkpt>
      <trkpt lat="46.81752" lon="6.32709">
        <ele>899.45</ele>
        <time>2019-06-01T13:42:51Z</time>
      </trkpt>
      <trkpt lat="46.81745" lon="6.32703">
        <ele>899.45</ele>
        <time>2019-06-01T13:42:53Z</time>
      </trkpt>
      <trkpt lat="46.81731" lon="6.32692">
        <ele>899.93</ele>
        <time>2019-06-01T13:42:57Z</time>
      </trkpt>
      <trkpt lat="46.81717" lon="6.32681">
        <ele>899.93</ele>
        <time>2019-06-01T13:43:01Z</time>
      </trkpt>
      <trkpt lat="46.8171" lon="6.32676">
        <ele>900.41</ele>
        <time>2019-06-01T13:43:03Z</time>
      </trkpt>
      <trkpt lat="46.81695" lon="6.32666">
        <ele>900.89</ele>
        <time>2019-06-01T13:43:07Z</time>
      </trkpt>
      <trkpt lat="46.81675" lon="6.32645">
        <ele>900.41</ele>
        <time>2019-06-01T13:43:14Z</time>
      </trkpt>
      <trkpt lat="46.81669" lon="6.32629">
        <ele>900.41</ele>
        <time>2019-06-01T13:43:17Z</time>
      </trkpt>
      <trkpt lat="46.81637" lon="6.32538">
        <ele>897.05</ele>
        <time>2019-06-01T13:43:29Z</time>
      </trkpt>
      <trkpt lat="46.81618" lon="6.32492">
        <ele>895.12</ele>
        <time>2019-06-01T13:43:34Z</time>
      </trkpt>
      <trkpt lat="46.81585" lon="6.32411">
        <ele>892.24</ele>
        <time>2019-06-01T13:43:42Z</time>
      </trkpt>
      <trkpt lat="46.81578" lon="6.3239">
        <ele>891.28</ele>
        <time>2019-06-01T13:43:44Z</time>
      </trkpt>
      <trkpt lat="46.81534" lon="6.32325">
        <ele>890.8</ele>
        <time>2019-06-01T13:43:56Z</time>
      </trkpt>
      <trkpt lat="46.81493" lon="6.32273">
        <ele>889.84</ele>
        <time>2019-06-01T13:44:07Z</time>
      </trkpt>
      <trkpt lat="46.81474" lon="6.32247">
        <ele>889.36</ele>
        <time>2019-06-01T13:44:12Z</time>
      </trkpt>
      <trkpt lat="46.81462" lon="6.32227">
        <ele>888.4</ele>
        <time>2019-06-01T13:44:17Z</time>
      </trkpt>
      <trkpt lat="46.81451" lon="6.32213">
        <ele>887.91</ele>
        <time>2019-06-01T13:44:22Z</time>
      </trkpt>
      <trkpt lat="46.81432" lon="6.32193">
        <ele>886.95</ele>
        <time>2019-06-01T13:44:33Z</time>
      </trkpt>
      <trkpt lat="46.81435" lon="6.32197">
        <ele>886.95</ele>
        <time>2019-06-01T13:44:42Z</time>
      </trkpt>
      <trkpt lat="46.81441" lon="6.32203">
        <ele>887.43</ele>
        <time>2019-06-01T13:44:47Z</time>
      </trkpt>
      <trkpt lat="46.81464" lon="6.32228">
        <ele>888.4</ele>
        <time>2019-06-01T13:45:01Z</time>
      </trkpt>
      <trkpt lat="46.81464" lon="6.32229">
        <ele>888.4</ele>
        <time>2019-06-01T13:45:02Z</time>
      </trkpt>
      <trkpt lat="46.81465" lon="6.32233">
        <ele>888.4</ele>
        <time>2019-06-01T13:45:14Z</time>
      </trkpt>
      <trkpt lat="46.81464" lon="6.32233">
        <ele>888.4</ele>
        <time>2019-06-01T13:45:25Z</time>
      </trkpt>
      <trkpt lat="46.81458" lon="6.3222">
        <ele>888.4</ele>
        <time>2019-06-01T13:45:31Z</time>
      </trkpt>
      <trkpt lat="46.81396" lon="6.32169">
        <ele>884.55</ele>
        <time>2019-06-01T13:45:46Z</time>
      </trkpt>
      <trkpt lat="46.81388" lon="6.3216">
        <ele>884.07</ele>
        <time>2019-06-01T13:45:48Z</time>
      </trkpt>
      <trkpt lat="46.81356" lon="6.32149">
        <ele>879.74</ele>
        <time>2019-06-01T13:45:53Z</time>
      </trkpt>
      <trkpt lat="46.81327" lon="6.32153">
        <ele>874.94</ele>
        <time>2019-06-01T13:45:56Z</time>
      </trkpt>
      <trkpt lat="46.8127" lon="6.32154">
        <ele>874.94</ele>
        <time>2019-06-01T13:46:03Z</time>
      </trkpt>
      <trkpt lat="46.81221" lon="6.32143">
        <ele>877.34</ele>
        <time>2019-06-01T13:46:11Z</time>
      </trkpt>
      <trkpt lat="46.81204" lon="6.32143">
        <ele>878.3</ele>
        <time>2019-06-01T13:46:14Z</time>
      </trkpt>
      <trkpt lat="46.81185" lon="6.32152">
        <ele>879.26</ele>
        <time>2019-06-01T13:46:18Z</time>
      </trkpt>
      <trkpt lat="46.81163" lon="6.32161">
        <ele>879.26</ele>
        <time>2019-06-01T13:46:22Z</time>
      </trkpt>
      <trkpt lat="46.81124" lon="6.32178">
        <ele>880.22</ele>
        <time>2019-06-01T13:46:29Z</time>
      </trkpt>
      <trkpt lat="46.81115" lon="6.32185">
        <ele>881.19</ele>
        <time>2019-06-01T13:46:31Z</time>
      </trkpt>
      <trkpt lat="46.8109" lon="6.32199">
        <ele>882.63</ele>
        <time>2019-06-01T13:46:40Z</time>
      </trkpt>
      <trkpt lat="46.81076" lon="6.32188">
        <ele>882.63</ele>
        <time>2019-06-01T13:46:44Z</time>
      </trkpt>
      <trkpt lat="46.8107" lon="6.32181">
        <ele>882.63</ele>
        <time>2019-06-01T13:46:46Z</time>
      </trkpt>
      <trkpt lat="46.81042" lon="6.32133">
        <ele>882.63</ele>
        <time>2019-06-01T13:46:58Z</time>
      </trkpt>
      <trkpt lat="46.81037" lon="6.32133">
        <ele>882.63</ele>
        <time>2019-06-01T13:47:09Z</time>
      </trkpt>
      <trkpt lat="46.81037" lon="6.32133">
        <ele>882.63</ele>
        <time>2019-06-01T13:47:11Z</time>
      </trkpt>
      <trkpt lat="46.81012" lon="6.32113">
        <ele>883.59</ele>
        <time>2019-06-01T13:47:23Z</time>
      </trkpt>
      <trkpt lat="46.81009" lon="6.32111">
        <ele>883.59</ele>
        <time>2019-06-01T13:47:24Z</time>
      </trkpt>
      <trkpt lat="46.80949" lon="6.32076">
        <ele>885.51</ele>
        <time>2019-06-01T13:47:40Z</time>
      </trkpt>
      <trkpt lat="46.80876" lon="6.32055">
        <ele>886.95</ele>
        <time>2019-06-01T13:47:55Z</time>
      </trkpt>
      <trkpt lat="46.80796" lon="6.31992">
        <ele>890.32</ele>
        <time>2019-06-01T13:48:13Z</time>
      </trkpt>
      <trkpt lat="46.80747" lon="6.31916">
        <ele>892.72</ele>
        <time>2019-06-01T13:48:27Z</time>
      </trkpt>
      <trkpt lat="46.80696" lon="6.31834">
        <ele>896.09</ele>
        <time>2019-06-01T13:48:42Z</time>
      </trkpt>
      <trkpt lat="46.80627" lon="6.31748">
        <ele>898.97</ele>
        <time>2019-06-01T13:49:00Z</time>
      </trkpt>
      <trkpt lat="46.80565" lon="6.31665">
        <ele>901.85</ele>
        <time>2019-06-01T13:49:17Z</time>
      </trkpt>
      <trkpt lat="46.80546" lon="6.31639">
        <ele>902.33</ele>
        <time>2019-06-01T13:49:22Z</time>
      </trkpt>
      <trkpt lat="46.80507" lon="6.31563">
        <ele>903.3</ele>
        <time>2019-06-01T13:49:35Z</time>
      </trkpt>
      <trkpt lat="46.80499" lon="6.31533">
        <ele>902.82</ele>
        <time>2019-06-01T13:49:40Z</time>
      </trkpt>
      <trkpt lat="46.80472" lon="6.31422">
        <ele>900.89</ele>
        <time>2019-06-01T13:49:57Z</time>
      </trkpt>
      <trkpt lat="46.80452" lon="6.31352">
        <ele>898.49</ele>
        <time>2019-06-01T13:50:07Z</time>
      </trkpt>
      <trkpt lat="46.80433" lon="6.3129">
        <ele>897.05</ele>
        <time>2019-06-01T13:50:19Z</time>
      </trkpt>
      <trkpt lat="46.80421" lon="6.31264">
        <ele>896.09</ele>
        <time>2019-06-01T13:50:29Z</time>
      </trkpt>
      <trkpt lat="46.80421" lon="6.31264">
        <ele>896.09</ele>
        <time>2019-06-01T13:50:44Z</time>
      </trkpt>
      <trkpt lat="46.80403" lon="6.31243">
        <ele>895.61</ele>
        <time>2019-06-01T13:50:52Z</time>
      </trkpt>
      <trkpt lat="46.80352" lon="6.31216">
        <ele>893.2</ele>
        <time>2019-06-01T13:51:02Z</time>
      </trkpt>
      <trkpt lat="46.80323" lon="6.31181">
        <ele>889.84</ele>
        <time>2019-06-01T13:51:07Z</time>
      </trkpt>
      <trkpt lat="46.80316" lon="6.31172">
        <ele>888.88</ele>
        <time>2019-06-01T13:51:08Z</time>
      </trkpt>
      <trkpt lat="46.80284" lon="6.31112">
        <ele>884.55</ele>
        <time>2019-06-01T13:51:13Z</time>
      </trkpt>
      <trkpt lat="46.8027" lon="6.31087">
        <ele>883.59</ele>
        <time>2019-06-01T13:51:15Z</time>
      </trkpt>
      <trkpt lat="46.80258" lon="6.31062">
        <ele>882.63</ele>
        <time>2019-06-01T13:51:17Z</time>
      </trkpt>
      <trkpt lat="46.80188" lon="6.30961">
        <ele>881.19</ele>
        <time>2019-06-01T13:51:28Z</time>
      </trkpt>
      <trkpt lat="46.80176" lon="6.30945">
        <ele>881.67</ele>
        <time>2019-06-01T13:51:30Z</time>
      </trkpt>
      <trkpt lat="46.80158" lon="6.30911">
        <ele>882.15</ele>
        <time>2019-06-01T13:51:34Z</time>
      </trkpt>
      <trkpt lat="46.80147" lon="6.30876">
        <ele>883.11</ele>
        <time>2019-06-01T13:51:39Z</time>
      </trkpt>
      <trkpt lat="46.80133" lon="6.30883">
        <ele>883.11</ele>
        <time>2019-06-01T13:51:46Z</time>
      </trkpt>
      <trkpt lat="46.80128" lon="6.30876">
        <ele>883.11</ele>
        <time>2019-06-01T13:51:48Z</time>
      </trkpt>
      <trkpt lat="46.8012" lon="6.30856">
        <ele>883.11</ele>
        <time>2019-06-01T13:51:52Z</time>
      </trkpt>
      <trkpt lat="46.80103" lon="6.30818">
        <ele>883.59</ele>
        <time>2019-06-01T13:51:58Z</time>
      </trkpt>
      <trkpt lat="46.80099" lon="6.30806">
        <ele>883.59</ele>
        <time>2019-06-01T13:52:00Z</time>
      </trkpt>
      <trkpt lat="46.80089" lon="6.30785">
        <ele>884.07</ele>
        <time>2019-06-01T13:52:04Z</time>
      </trkpt>
      <trkpt lat="46.8008" lon="6.30759">
        <ele>884.07</ele>
        <time>2019-06-01T13:52:08Z</time>
      </trkpt>
      <trkpt lat="46.8007" lon="6.30735">
        <ele>885.03</ele>
        <time>2019-06-01T13:52:12Z</time>
      </trkpt>
      <trkpt lat="46.80063" lon="6.30718">
        <ele>885.51</ele>
        <time>2019-06-01T13:52:15Z</time>
      </trkpt>
      <trkpt lat="46.80031" lon="6.3064">
        <ele>885.99</ele>
        <time>2019-06-01T13:52:28Z</time>
      </trkpt>
      <trkpt lat="46.80026" lon="6.30627">
        <ele>885.99</ele>
        <time>2019-06-01T13:52:30Z</time>
      </trkpt>
      <trkpt lat="46.80009" lon="6.3061">
        <ele>885.99</ele>
        <time>2019-06-01T13:52:35Z</time>
      </trkpt>
      <trkpt lat="46.79973" lon="6.30534">
        <ele>886.47</ele>
        <time>2019-06-01T13:52:54Z</time>
      </trkpt>
      <trkpt lat="46.79949" lon="6.30482">
        <ele>887.43</ele>
        <time>2019-06-01T13:53:08Z</time>
      </trkpt>
      <trkpt lat="46.7992" lon="6.30429">
        <ele>888.4</ele>
        <time>2019-06-01T13:53:23Z</time>
      </trkpt>
      <trkpt lat="46.79888" lon="6.30373">
        <ele>888.88</ele>
        <time>2019-06-01T13:53:37Z</time>
      </trkpt>
      <trkpt lat="46.7986" lon="6.3033">
        <ele>888.4</ele>
        <time>2019-06-01T13:53:48Z</time>
      </trkpt>
      <trkpt lat="46.79832" lon="6.30286">
        <ele>887.91</ele>
        <time>2019-06-01T13:53:59Z</time>
      </trkpt>
      <trkpt lat="46.79832" lon="6.30271">
        <ele>887.91</ele>
        <time>2019-06-01T13:54:02Z</time>
      </trkpt>
      <trkpt lat="46.79824" lon="6.3025">
        <ele>887.91</ele>
        <time>2019-06-01T13:54:06Z</time>
      </trkpt>
      <trkpt lat="46.79792" lon="6.30197">
        <ele>888.4</ele>
        <time>2019-06-01T13:54:19Z</time>
      </trkpt>
      <trkpt lat="46.79763" lon="6.30133">
        <ele>886.95</ele>
        <time>2019-06-01T13:54:33Z</time>
      </trkpt>
      <trkpt lat="46.79741" lon="6.30075">
        <ele>884.07</ele>
        <time>2019-06-01T13:54:41Z</time>
      </trkpt>
      <trkpt lat="46.79691" lon="6.29985">
        <ele>880.71</ele>
        <time>2019-06-01T13:54:52Z</time>
      </trkpt>
      <trkpt lat="46.79665" lon="6.29944">
        <ele>879.26</ele>
        <time>2019-06-01T13:54:57Z</time>
      </trkpt>
      <trkpt lat="46.79652" lon="6.29923">
        <ele>878.3</ele>
        <time>2019-06-01T13:55:00Z</time>
      </trkpt>
      <trkpt lat="46.79626" lon="6.29883">
        <ele>876.38</ele>
        <time>2019-06-01T13:55:06Z</time>
      </trkpt>
      <trkpt lat="46.79589" lon="6.2985">
        <ele>875.42</ele>
        <time>2019-06-01T13:55:13Z</time>
      </trkpt>
      <trkpt lat="46.7956" lon="6.29847">
        <ele>876.86</ele>
        <time>2019-06-01T13:55:19Z</time>
      </trkpt>
      <trkpt lat="46.79547" lon="6.29853">
        <ele>877.34</ele>
        <time>2019-06-01T13:55:22Z</time>
      </trkpt>
      <trkpt lat="46.79508" lon="6.29872">
        <ele>877.34</ele>
        <time>2019-06-01T13:55:32Z</time>
      </trkpt>
      <trkpt lat="46.79483" lon="6.29887">
        <ele>875.9</ele>
        <time>2019-06-01T13:55:39Z</time>
      </trkpt>
      <trkpt lat="46.79466" lon="6.2985">
        <ele>876.38</ele>
        <time>2019-06-01T13:55:46Z</time>
      </trkpt>
      <trkpt lat="46.7946" lon="6.29836">
        <ele>876.38</ele>
        <time>2019-06-01T13:55:50Z</time>
      </trkpt>
      <trkpt lat="46.79459" lon="6.29843">
        <ele>876.38</ele>
        <time>2019-06-01T13:55:56Z</time>
      </trkpt>
      <trkpt lat="46.79481" lon="6.29899">
        <ele>876.38</ele>
        <time>2019-06-01T13:56:07Z</time>
      </trkpt>
      <trkpt lat="46.79482" lon="6.29936">
        <ele>877.82</ele>
        <time>2019-06-01T13:56:13Z</time>
      </trkpt>
      <trkpt lat="46.79477" lon="6.29963">
        <ele>879.74</ele>
        <time>2019-06-01T13:56:18Z</time>
      </trkpt>
      <trkpt lat="46.79466" lon="6.29997">
        <ele>882.63</ele>
        <time>2019-06-01T13:56:26Z</time>
      </trkpt>
      <trkpt lat="46.79456" lon="6.29993">
        <ele>883.59</ele>
        <time>2019-06-01T13:56:30Z</time>
      </trkpt>
      <trkpt lat="46.79433" lon="6.29968">
        <ele>883.59</ele>
        <time>2019-06-01T13:56:38Z</time>
      </trkpt>
      <trkpt lat="46.7941" lon="6.29939">
        <ele>884.55</ele>
        <time>2019-06-01T13:56:45Z</time>
      </trkpt>
      <trkpt lat="46.79355" lon="6.29847">
        <ele>886.95</ele>
        <time>2019-06-01T13:57:03Z</time>
      </trkpt>
      <trkpt lat="46.79294" lon="6.2977">
        <ele>888.4</ele>
        <time>2019-06-01T13:57:19Z</time>
      </trkpt>
      <trkpt lat="46.79281" lon="6.29759">
        <ele>888.88</ele>
        <time>2019-06-01T13:57:22Z</time>
      </trkpt>
      <trkpt lat="46.79225" lon="6.29693">
        <ele>889.84</ele>
        <time>2019-06-01T13:57:36Z</time>
      </trkpt>
      <trkpt lat="46.79165" lon="6.29614">
        <ele>890.8</ele>
        <time>2019-06-01T13:57:53Z</time>
      </trkpt>
      <trkpt lat="46.79134" lon="6.29574">
        <ele>890.8</ele>
        <time>2019-06-01T13:58:05Z</time>
      </trkpt>
      <trkpt lat="46.79118" lon="6.29552">
        <ele>890.32</ele>
        <time>2019-06-01T13:58:11Z</time>
      </trkpt>
      <trkpt lat="46.79055" lon="6.29466">
        <ele>889.36</ele>
        <time>2019-06-01T13:58:29Z</time>
      </trkpt>
      <trkpt lat="46.79019" lon="6.29413">
        <ele>887.43</ele>
        <time>2019-06-01T13:58:42Z</time>
      </trkpt>
      <trkpt lat="46.78993" lon="6.29382">
        <ele>885.99</ele>
        <time>2019-06-01T13:58:52Z</time>
      </trkpt>
      <trkpt lat="46.78989" lon="6.29376">
        <ele>885.99</ele>
        <time>2019-06-01T13:58:55Z</time>
      </trkpt>
      <trkpt lat="46.78974" lon="6.29359">
        <ele>885.51</ele>
        <time>2019-06-01T13:59:01Z</time>
      </trkpt>
      <trkpt lat="46.78913" lon="6.29275">
        <ele>884.07</ele>
        <time>2019-06-01T13:59:16Z</time>
      </trkpt>
      <trkpt lat="46.78837" lon="6.2917">
        <ele>881.67</ele>
        <time>2019-06-01T13:59:31Z</time>
      </trkpt>
      <trkpt lat="46.7879" lon="6.29095">
        <ele>878.78</ele>
        <time>2019-06-01T13:59:40Z</time>
      </trkpt>
      <trkpt lat="46.78749" lon="6.29032">
        <ele>875.42</ele>
        <time>2019-06-01T13:59:47Z</time>
      </trkpt>
      <trkpt lat="46.78681" lon="6.28927">
        <ele>872.53</ele>
        <time>2019-06-01T13:59:58Z</time>
      </trkpt>
      <trkpt lat="46.786" lon="6.28825">
        <ele>869.17</ele>
        <time>2019-06-01T14:00:11Z</time>
      </trkpt>
      <trkpt lat="46.78504" lon="6.28721">
        <ele>865.8</ele>
        <time>2019-06-01T14:00:26Z</time>
      </trkpt>
      <trkpt lat="46.78448" lon="6.28672">
        <ele>863.88</ele>
        <time>2019-06-01T14:00:35Z</time>
      </trkpt>
      <trkpt lat="46.78396" lon="6.28535">
        <ele>862.44</ele>
        <time>2019-06-01T14:00:51Z</time>
      </trkpt>
      <trkpt lat="46.78354" lon="6.28412">
        <ele>862.44</ele>
        <time>2019-06-01T14:01:07Z</time>
      </trkpt>
      <trkpt lat="46.78346" lon="6.28394">
        <ele>862.92</ele>
        <time>2019-06-01T14:01:10Z</time>
      </trkpt>
      <trkpt lat="46.78304" lon="6.28319">
        <ele>862.92</ele>
        <time>2019-06-01T14:01:24Z</time>
      </trkpt>
      <trkpt lat="46.78247" lon="6.28236">
        <ele>863.4</ele>
        <time>2019-06-01T14:01:40Z</time>
      </trkpt>
      <trkpt lat="46.78184" lon="6.28137">
        <ele>862.92</ele>
        <time>2019-06-01T14:01:59Z</time>
      </trkpt>
      <trkpt lat="46.78177" lon="6.28128">
        <ele>862.92</ele>
        <time>2019-06-01T14:02:01Z</time>
      </trkpt>
      <trkpt lat="46.78161" lon="6.28105">
        <ele>863.4</ele>
        <time>2019-06-01T14:02:07Z</time>
      </trkpt>
      <trkpt lat="46.78143" lon="6.28123">
        <ele>863.88</ele>
        <time>2019-06-01T14:02:14Z</time>
      </trkpt>
      <trkpt lat="46.78139" lon="6.28163">
        <ele>863.88</ele>
        <time>2019-06-01T14:02:24Z</time>
      </trkpt>
      <trkpt lat="46.78145" lon="6.28168">
        <ele>863.4</ele>
        <time>2019-06-01T14:02:37Z</time>
      </trkpt>
      <trkpt lat="46.78145" lon="6.28168">
        <ele>863.88</ele>
        <time>2019-06-01T14:02:39Z</time>
      </trkpt>
      <trkpt lat="46.78158" lon="6.2814">
        <ele>862.92</ele>
        <time>2019-06-01T14:09:55Z</time>
      </trkpt>
      <trkpt lat="46.78158" lon="6.28142">
        <ele>862.92</ele>
        <time>2019-06-01T14:09:56Z</time>
      </trkpt>
      <trkpt lat="46.7814" lon="6.28157">
        <ele>862.92</ele>
        <time>2019-06-01T14:10:08Z</time>
      </trkpt>
      <trkpt lat="46.78136" lon="6.28151">
        <ele>862.92</ele>
        <time>2019-06-01T14:10:11Z</time>
      </trkpt>
      <trkpt lat="46.78132" lon="6.28141">
        <ele>862.92</ele>
        <time>2019-06-01T14:10:15Z</time>
      </trkpt>
      <trkpt lat="46.78154" lon="6.28112">
        <ele>862.44</ele>
        <time>2019-06-01T14:10:25Z</time>
      </trkpt>
      <trkpt lat="46.78161" lon="6.28115">
        <ele>861.96</ele>
        <time>2019-06-01T14:10:29Z</time>
      </trkpt>
      <trkpt lat="46.78162" lon="6.28104">
        <ele>862.44</ele>
        <time>2019-06-01T14:10:33Z</time>
      </trkpt>
      <trkpt lat="46.78133" lon="6.28056">
        <ele>862.44</ele>
        <time>2019-06-01T14:10:49Z</time>
      </trkpt>
      <trkpt lat="46.78082" lon="6.27978">
        <ele>862.44</ele>
        <time>2019-06-01T14:11:05Z</time>
      </trkpt>
      <trkpt lat="46.78078" lon="6.27973">
        <ele>862.44</ele>
        <time>2019-06-01T14:11:06Z</time>
      </trkpt>
      <trkpt lat="46.78066" lon="6.27954">
        <ele>862.44</ele>
        <time>2019-06-01T14:11:09Z</time>
      </trkpt>
      <trkpt lat="46.78052" lon="6.27936">
        <ele>861.96</ele>
        <time>2019-06-01T14:11:12Z</time>
      </trkpt>
      <trkpt lat="46.78016" lon="6.279">
        <ele>861.96</ele>
        <time>2019-06-01T14:11:19Z</time>
      </trkpt>
      <trkpt lat="46.77942" lon="6.27872">
        <ele>861.48</ele>
        <time>2019-06-01T14:11:31Z</time>
      </trkpt>
      <trkpt lat="46.77873" lon="6.27866">
        <ele>862.92</ele>
        <time>2019-06-01T14:11:44Z</time>
      </trkpt>
      <trkpt lat="46.77841" lon="6.27866">
        <ele>864.36</ele>
        <time>2019-06-01T14:11:51Z</time>
      </trkpt>
      <trkpt lat="46.77824" lon="6.2787">
        <ele>864.84</ele>
        <time>2019-06-01T14:11:55Z</time>
      </trkpt>
      <trkpt lat="46.77792" lon="6.27877">
        <ele>866.29</ele>
        <time>2019-06-01T14:12:02Z</time>
      </trkpt>
      <trkpt lat="46.77774" lon="6.27884">
        <ele>867.25</ele>
        <time>2019-06-01T14:12:06Z</time>
      </trkpt>
      <trkpt lat="46.77751" lon="6.27891">
        <ele>867.73</ele>
        <time>2019-06-01T14:12:11Z</time>
      </trkpt>
      <trkpt lat="46.77741" lon="6.27893">
        <ele>867.73</ele>
        <time>2019-06-01T14:12:13Z</time>
      </trkpt>
      <trkpt lat="46.77714" lon="6.27902">
        <ele>869.17</ele>
        <time>2019-06-01T14:12:19Z</time>
      </trkpt>
      <trkpt lat="46.7767" lon="6.27914">
        <ele>870.61</ele>
        <time>2019-06-01T14:12:28Z</time>
      </trkpt>
      <trkpt lat="46.77606" lon="6.27945">
        <ele>871.09</ele>
        <time>2019-06-01T14:12:44Z</time>
      </trkpt>
      <trkpt lat="46.77585" lon="6.27957">
        <ele>870.13</ele>
        <time>2019-06-01T14:12:49Z</time>
      </trkpt>
      <trkpt lat="46.7751" lon="6.27991">
        <ele>866.77</ele>
        <time>2019-06-01T14:13:02Z</time>
      </trkpt>
      <trkpt lat="46.77504" lon="6.27994">
        <ele>866.77</ele>
        <time>2019-06-01T14:13:03Z</time>
      </trkpt>
      <trkpt lat="46.77429" lon="6.28026">
        <ele>863.4</ele>
        <time>2019-06-01T14:13:14Z</time>
      </trkpt>
      <trkpt lat="46.77375" lon="6.28054">
        <ele>861</ele>
        <time>2019-06-01T14:13:21Z</time>
      </trkpt>
      <trkpt lat="46.77332" lon="6.28057">
        <ele>861.48</ele>
        <time>2019-06-01T14:13:27Z</time>
      </trkpt>
      <trkpt lat="46.77301" lon="6.28039">
        <ele>861</ele>
        <time>2019-06-01T14:13:32Z</time>
      </trkpt>
      <trkpt lat="46.7729" lon="6.28028">
        <ele>861.48</ele>
        <time>2019-06-01T14:13:34Z</time>
      </trkpt>
      <trkpt lat="46.7727" lon="6.27998">
        <ele>861.96</ele>
        <time>2019-06-01T14:13:39Z</time>
      </trkpt>
      <trkpt lat="46.77263" lon="6.27988">
        <ele>861.96</ele>
        <time>2019-06-01T14:13:41Z</time>
      </trkpt>
      <trkpt lat="46.77258" lon="6.27977">
        <ele>861.96</ele>
        <time>2019-06-01T14:13:43Z</time>
      </trkpt>
      <trkpt lat="46.77237" lon="6.27952">
        <ele>861.48</ele>
        <time>2019-06-01T14:13:49Z</time>
      </trkpt>
      <trkpt lat="46.77169" lon="6.27945">
        <ele>860.04</ele>
        <time>2019-06-01T14:14:03Z</time>
      </trkpt>
      <trkpt lat="46.77118" lon="6.27945">
        <ele>860.04</ele>
        <time>2019-06-01T14:14:13Z</time>
      </trkpt>
      <trkpt lat="46.77109" lon="6.27912">
        <ele>859.56</ele>
        <time>2019-06-01T14:14:20Z</time>
      </trkpt>
      <trkpt lat="46.77111" lon="6.27907">
        <ele>859.56</ele>
        <time>2019-06-01T14:14:21Z</time>
      </trkpt>
      <trkpt lat="46.77118" lon="6.27891">
        <ele>859.56</ele>
        <time>2019-06-01T14:14:24Z</time>
      </trkpt>
      <trkpt lat="46.77125" lon="6.27874">
        <ele>859.08</ele>
        <time>2019-06-01T14:14:27Z</time>
      </trkpt>
      <trkpt lat="46.7713" lon="6.27861">
        <ele>859.56</ele>
        <time>2019-06-01T14:14:29Z</time>
      </trkpt>
      <trkpt lat="46.77134" lon="6.27849">
        <ele>859.56</ele>
        <time>2019-06-01T14:14:31Z</time>
      </trkpt>
      <trkpt lat="46.77151" lon="6.27777">
        <ele>859.56</ele>
        <time>2019-06-01T14:14:42Z</time>
      </trkpt>
      <trkpt lat="46.77158" lon="6.27744">
        <ele>859.56</ele>
        <time>2019-06-01T14:14:47Z</time>
      </trkpt>
      <trkpt lat="46.77162" lon="6.27702">
        <ele>859.56</ele>
        <time>2019-06-01T14:14:54Z</time>
      </trkpt>
      <trkpt lat="46.77159" lon="6.27645">
        <ele>858.59</ele>
        <time>2019-06-01T14:15:04Z</time>
      </trkpt>
      <trkpt lat="46.77157" lon="6.27633">
        <ele>858.59</ele>
        <time>2019-06-01T14:15:06Z</time>
      </trkpt>
      <trkpt lat="46.77148" lon="6.27557">
        <ele>858.11</ele>
        <time>2019-06-01T14:15:20Z</time>
      </trkpt>
      <trkpt lat="46.77151" lon="6.27548">
        <ele>857.63</ele>
        <time>2019-06-01T14:15:22Z</time>
      </trkpt>
      <trkpt lat="46.77146" lon="6.27522">
        <ele>858.11</ele>
        <time>2019-06-01T14:15:27Z</time>
      </trkpt>
      <trkpt lat="46.77106" lon="6.27505">
        <ele>857.63</ele>
        <time>2019-06-01T14:15:40Z</time>
      </trkpt>
      <trkpt lat="46.77093" lon="6.27537">
        <ele>859.08</ele>
        <time>2019-06-01T14:15:50Z</time>
      </trkpt>
      <trkpt lat="46.77092" lon="6.27551">
        <ele>860.04</ele>
        <time>2019-06-01T14:15:54Z</time>
      </trkpt>
      <trkpt lat="46.77106" lon="6.27565">
        <ele>861.48</ele>
        <time>2019-06-01T14:16:07Z</time>
      </trkpt>
    </trkseg>
  </trk>
</gpx>